<?xml version="1.0" encoding="UTF-8" standalone="no" ?>
<gpx xmlns="http://www.topografix.com/GPX/1/1" xmlns:xsi="http://www.w3.org/2001/XMLSchema-instance" xsi:schemaLocation="http://www.topografix.com/GPX/1/1 http://www.topografix.com/GPX/1/1/gpx.xsd" version="1.1" creator="VisuGPX - https://www.visugpx.com">
  <metadata>
    <name>Balade à coté de Montreuillon</name>
    <desc><![CDATA[Une randonnée à coté de Montreuillon et de son acqueduc.]]></desc>
  </metadata>
  <trk>
    <name><![CDATA[14-AVR-12 17:17:42]]></name>
    <trkseg>
      <trkpt lat="47.17952" lon="3.78542">
        <ele>265.05859375</ele>
        <time>2012-04-14T12:17:13Z</time>
      </trkpt>
      <trkpt lat="47.1797" lon="3.78496">
        <ele>267.66796875</ele>
        <time>2012-04-14T12:17:26Z</time>
      </trkpt>
      <trkpt lat="47.17976" lon="3.78487">
        <ele>268.25390625</ele>
        <time>2012-04-14T12:17:31Z</time>
      </trkpt>
      <trkpt lat="47.17978" lon="3.78493">
        <ele>268.82421875</ele>
        <time>2012-04-14T12:17:35Z</time>
      </trkpt>
      <trkpt lat="47.17981" lon="3.785">
        <ele>269.15234375</ele>
        <time>2012-04-14T12:17:38Z</time>
      </trkpt>
      <trkpt lat="47.17989" lon="3.78517">
        <ele>270.66796875</ele>
        <time>2012-04-14T12:17:49Z</time>
      </trkpt>
      <trkpt lat="47.18002" lon="3.78501">
        <ele>273.453125</ele>
        <time>2012-04-14T12:18:00Z</time>
      </trkpt>
      <trkpt lat="47.18008" lon="3.7849">
        <ele>274.50390625</ele>
        <time>2012-04-14T12:18:06Z</time>
      </trkpt>
      <trkpt lat="47.1801" lon="3.78477">
        <ele>273.53125</ele>
        <time>2012-04-14T12:18:10Z</time>
      </trkpt>
      <trkpt lat="47.18013" lon="3.78442">
        <ele>270.41796875</ele>
        <time>2012-04-14T12:18:24Z</time>
      </trkpt>
      <trkpt lat="47.18013" lon="3.7844">
        <ele>270.1953125</ele>
        <time>2012-04-14T12:18:25Z</time>
      </trkpt>
      <trkpt lat="47.18013" lon="3.78429">
        <ele>269.078125</ele>
        <time>2012-04-14T12:18:31Z</time>
      </trkpt>
      <trkpt lat="47.18015" lon="3.78421">
        <ele>268.57421875</ele>
        <time>2012-04-14T12:18:35Z</time>
      </trkpt>
      <trkpt lat="47.18021" lon="3.78409">
        <ele>268.31640625</ele>
        <time>2012-04-14T12:18:43Z</time>
      </trkpt>
      <trkpt lat="47.1803" lon="3.78402">
        <ele>269.73828125</ele>
        <time>2012-04-14T12:18:54Z</time>
      </trkpt>
      <trkpt lat="47.18033" lon="3.78401">
        <ele>270.2109375</ele>
        <time>2012-04-14T12:18:56Z</time>
      </trkpt>
      <trkpt lat="47.18042" lon="3.78393">
        <ele>271.90625</ele>
        <time>2012-04-14T12:19:03Z</time>
      </trkpt>
      <trkpt lat="47.18045" lon="3.78393">
        <ele>272.58984375</ele>
        <time>2012-04-14T12:19:06Z</time>
      </trkpt>
      <trkpt lat="47.18059" lon="3.78392">
        <ele>275.234375</ele>
        <time>2012-04-14T12:19:15Z</time>
      </trkpt>
      <trkpt lat="47.18064" lon="3.78392">
        <ele>276.1015625</ele>
        <time>2012-04-14T12:19:18Z</time>
      </trkpt>
      <trkpt lat="47.18074" lon="3.78386">
        <ele>278.6953125</ele>
        <time>2012-04-14T12:19:27Z</time>
      </trkpt>
      <trkpt lat="47.18078" lon="3.78381">
        <ele>280.44921875</ele>
        <time>2012-04-14T12:19:32Z</time>
      </trkpt>
      <trkpt lat="47.18079" lon="3.7836">
        <ele>281.9765625</ele>
        <time>2012-04-14T12:19:42Z</time>
      </trkpt>
      <trkpt lat="47.18077" lon="3.78356">
        <ele>281.90625</ele>
        <time>2012-04-14T12:19:45Z</time>
      </trkpt>
      <trkpt lat="47.18068" lon="3.78334">
        <ele>281.515625</ele>
        <time>2012-04-14T12:20:00Z</time>
      </trkpt>
      <trkpt lat="47.18062" lon="3.78319">
        <ele>281.16015625</ele>
        <time>2012-04-14T12:20:14Z</time>
      </trkpt>
      <trkpt lat="47.18059" lon="3.78315">
        <ele>280.6640625</ele>
        <time>2012-04-14T12:20:18Z</time>
      </trkpt>
      <trkpt lat="47.18052" lon="3.78283">
        <ele>280.15234375</ele>
        <time>2012-04-14T12:20:35Z</time>
      </trkpt>
      <trkpt lat="47.18047" lon="3.78275">
        <ele>279.18359375</ele>
        <time>2012-04-14T12:20:41Z</time>
      </trkpt>
      <trkpt lat="47.18044" lon="3.78269">
        <ele>278.55859375</ele>
        <time>2012-04-14T12:20:45Z</time>
      </trkpt>
      <trkpt lat="47.18037" lon="3.78247">
        <ele>275.984375</ele>
        <time>2012-04-14T12:20:59Z</time>
      </trkpt>
      <trkpt lat="47.18036" lon="3.78236">
        <ele>275.05078125</ele>
        <time>2012-04-14T12:21:09Z</time>
      </trkpt>
      <trkpt lat="47.18036" lon="3.78232">
        <ele>274.81640625</ele>
        <time>2012-04-14T12:21:12Z</time>
      </trkpt>
      <trkpt lat="47.18038" lon="3.78225">
        <ele>274.75</ele>
        <time>2012-04-14T12:21:16Z</time>
      </trkpt>
      <trkpt lat="47.1804" lon="3.7822">
        <ele>274.8203125</ele>
        <time>2012-04-14T12:21:19Z</time>
      </trkpt>
      <trkpt lat="47.18043" lon="3.78211">
        <ele>274.8203125</ele>
        <time>2012-04-14T12:21:24Z</time>
      </trkpt>
      <trkpt lat="47.18055" lon="3.78193">
        <ele>275.12109375</ele>
        <time>2012-04-14T12:21:39Z</time>
      </trkpt>
      <trkpt lat="47.18064" lon="3.78175">
        <ele>275.4375</ele>
        <time>2012-04-14T12:21:50Z</time>
      </trkpt>
      <trkpt lat="47.18077" lon="3.78154">
        <ele>276.2890625</ele>
        <time>2012-04-14T12:22:02Z</time>
      </trkpt>
      <trkpt lat="47.18081" lon="3.78149">
        <ele>276.8359375</ele>
        <time>2012-04-14T12:22:07Z</time>
      </trkpt>
      <trkpt lat="47.18084" lon="3.78144">
        <ele>277.25390625</ele>
        <time>2012-04-14T12:22:11Z</time>
      </trkpt>
      <trkpt lat="47.18092" lon="3.78125">
        <ele>277.64453125</ele>
        <time>2012-04-14T12:22:22Z</time>
      </trkpt>
      <trkpt lat="47.18093" lon="3.78114">
        <ele>277.06640625</ele>
        <time>2012-04-14T12:22:27Z</time>
      </trkpt>
      <trkpt lat="47.181" lon="3.78089">
        <ele>277.15234375</ele>
        <time>2012-04-14T12:22:37Z</time>
      </trkpt>
      <trkpt lat="47.18103" lon="3.78074">
        <ele>277.54296875</ele>
        <time>2012-04-14T12:22:50Z</time>
      </trkpt>
      <trkpt lat="47.18103" lon="3.78071">
        <ele>277.609375</ele>
        <time>2012-04-14T12:22:55Z</time>
      </trkpt>
      <trkpt lat="47.18104" lon="3.78062">
        <ele>278.00390625</ele>
        <time>2012-04-14T12:23:01Z</time>
      </trkpt>
      <trkpt lat="47.18107" lon="3.78036">
        <ele>278.8515625</ele>
        <time>2012-04-14T12:23:15Z</time>
      </trkpt>
      <trkpt lat="47.18109" lon="3.7801">
        <ele>279.80078125</ele>
        <time>2012-04-14T12:23:26Z</time>
      </trkpt>
      <trkpt lat="47.18111" lon="3.77989">
        <ele>281.51171875</ele>
        <time>2012-04-14T12:23:39Z</time>
      </trkpt>
      <trkpt lat="47.1811" lon="3.7797">
        <ele>283.19921875</ele>
        <time>2012-04-14T12:23:50Z</time>
      </trkpt>
      <trkpt lat="47.18105" lon="3.77952">
        <ele>283.30859375</ele>
        <time>2012-04-14T12:24:02Z</time>
      </trkpt>
      <trkpt lat="47.18095" lon="3.77935">
        <ele>282.55859375</ele>
        <time>2012-04-14T12:24:15Z</time>
      </trkpt>
      <trkpt lat="47.18084" lon="3.77909">
        <ele>283.875</ele>
        <time>2012-04-14T12:24:32Z</time>
      </trkpt>
      <trkpt lat="47.18078" lon="3.77899">
        <ele>284.17578125</ele>
        <time>2012-04-14T12:24:39Z</time>
      </trkpt>
      <trkpt lat="47.18067" lon="3.77876">
        <ele>285.15234375</ele>
        <time>2012-04-14T12:24:56Z</time>
      </trkpt>
      <trkpt lat="47.18065" lon="3.77872">
        <ele>285.41796875</ele>
        <time>2012-04-14T12:25:00Z</time>
      </trkpt>
      <trkpt lat="47.18056" lon="3.77861">
        <ele>285.15625</ele>
        <time>2012-04-14T12:25:08Z</time>
      </trkpt>
      <trkpt lat="47.18038" lon="3.77841">
        <ele>284.359375</ele>
        <time>2012-04-14T12:25:23Z</time>
      </trkpt>
      <trkpt lat="47.18037" lon="3.7784">
        <ele>284.16015625</ele>
        <time>2012-04-14T12:25:24Z</time>
      </trkpt>
      <trkpt lat="47.18023" lon="3.77819">
        <ele>282.44921875</ele>
        <time>2012-04-14T12:25:37Z</time>
      </trkpt>
      <trkpt lat="47.18012" lon="3.77793">
        <ele>280.203125</ele>
        <time>2012-04-14T12:25:49Z</time>
      </trkpt>
      <trkpt lat="47.18007" lon="3.77784">
        <ele>278.18359375</ele>
        <time>2012-04-14T12:25:55Z</time>
      </trkpt>
      <trkpt lat="47.1799" lon="3.77787">
        <ele>272.7890625</ele>
        <time>2012-04-14T12:26:08Z</time>
      </trkpt>
      <trkpt lat="47.17966" lon="3.77786">
        <ele>262.8046875</ele>
        <time>2012-04-14T12:26:24Z</time>
      </trkpt>
      <trkpt lat="47.17947" lon="3.77779">
        <ele>255.06640625</ele>
        <time>2012-04-14T12:26:40Z</time>
      </trkpt>
      <trkpt lat="47.17944" lon="3.77779">
        <ele>254.125</ele>
        <time>2012-04-14T12:26:43Z</time>
      </trkpt>
      <trkpt lat="47.17938" lon="3.77778">
        <ele>251.9609375</ele>
        <time>2012-04-14T12:26:47Z</time>
      </trkpt>
      <trkpt lat="47.17929" lon="3.77773">
        <ele>248.76953125</ele>
        <time>2012-04-14T12:26:57Z</time>
      </trkpt>
      <trkpt lat="47.17903" lon="3.77772">
        <ele>244.96484375</ele>
        <time>2012-04-14T12:27:13Z</time>
      </trkpt>
      <trkpt lat="47.17881" lon="3.77767">
        <ele>248.53125</ele>
        <time>2012-04-14T12:27:28Z</time>
      </trkpt>
      <trkpt lat="47.17879" lon="3.77763">
        <ele>249.265625</ele>
        <time>2012-04-14T12:27:31Z</time>
      </trkpt>
      <trkpt lat="47.17873" lon="3.77757">
        <ele>251.34375</ele>
        <time>2012-04-14T12:27:47Z</time>
      </trkpt>
      <trkpt lat="47.17871" lon="3.77758">
        <ele>251.98046875</ele>
        <time>2012-04-14T12:27:50Z</time>
      </trkpt>
      <trkpt lat="47.17863" lon="3.77751">
        <ele>255.69140625</ele>
        <time>2012-04-14T12:28:00Z</time>
      </trkpt>
      <trkpt lat="47.17863" lon="3.77749">
        <ele>256.09375</ele>
        <time>2012-04-14T12:28:01Z</time>
      </trkpt>
      <trkpt lat="47.17863" lon="3.77743">
        <ele>256.94140625</ele>
        <time>2012-04-14T12:28:06Z</time>
      </trkpt>
      <trkpt lat="47.17862" lon="3.77738">
        <ele>257.875</ele>
        <time>2012-04-14T12:28:10Z</time>
      </trkpt>
      <trkpt lat="47.1786" lon="3.77732">
        <ele>259.16796875</ele>
        <time>2012-04-14T12:28:14Z</time>
      </trkpt>
      <trkpt lat="47.17857" lon="3.77715">
        <ele>262.375</ele>
        <time>2012-04-14T12:28:26Z</time>
      </trkpt>
      <trkpt lat="47.17858" lon="3.77695">
        <ele>264.35546875</ele>
        <time>2012-04-14T12:28:39Z</time>
      </trkpt>
      <trkpt lat="47.17858" lon="3.7768">
        <ele>265.734375</ele>
        <time>2012-04-14T12:28:53Z</time>
      </trkpt>
      <trkpt lat="47.1786" lon="3.77684">
        <ele>264.66796875</ele>
        <time>2012-04-14T12:29:23Z</time>
      </trkpt>
      <trkpt lat="47.17855" lon="3.77689">
        <ele>266.24609375</ele>
        <time>2012-04-14T12:29:34Z</time>
      </trkpt>
      <trkpt lat="47.17854" lon="3.77694">
        <ele>266.12109375</ele>
        <time>2012-04-14T12:29:46Z</time>
      </trkpt>
      <trkpt lat="47.17854" lon="3.77708">
        <ele>264.79296875</ele>
        <time>2012-04-14T12:29:59Z</time>
      </trkpt>
      <trkpt lat="47.17858" lon="3.77737">
        <ele>259.5703125</ele>
        <time>2012-04-14T12:30:14Z</time>
      </trkpt>
      <trkpt lat="47.17859" lon="3.77744">
        <ele>258.39453125</ele>
        <time>2012-04-14T12:30:17Z</time>
      </trkpt>
      <trkpt lat="47.17863" lon="3.77749">
        <ele>256.23046875</ele>
        <time>2012-04-14T12:30:20Z</time>
      </trkpt>
      <trkpt lat="47.17864" lon="3.7775">
        <ele>255.6171875</ele>
        <time>2012-04-14T12:30:21Z</time>
      </trkpt>
      <trkpt lat="47.17871" lon="3.7776">
        <ele>251.859375</ele>
        <time>2012-04-14T12:30:33Z</time>
      </trkpt>
      <trkpt lat="47.17861" lon="3.77757">
        <ele>255.8203125</ele>
        <time>2012-04-14T12:30:47Z</time>
      </trkpt>
      <trkpt lat="47.17856" lon="3.77752">
        <ele>258.25390625</ele>
        <time>2012-04-14T12:31:04Z</time>
      </trkpt>
      <trkpt lat="47.17856" lon="3.77749">
        <ele>258.61328125</ele>
        <time>2012-04-14T12:31:07Z</time>
      </trkpt>
      <trkpt lat="47.17855" lon="3.77743">
        <ele>259.80859375</ele>
        <time>2012-04-14T12:31:13Z</time>
      </trkpt>
      <trkpt lat="47.17848" lon="3.7774">
        <ele>263.04296875</ele>
        <time>2012-04-14T12:31:30Z</time>
      </trkpt>
      <trkpt lat="47.17847" lon="3.77737">
        <ele>264.04296875</ele>
        <time>2012-04-14T12:31:42Z</time>
      </trkpt>
      <trkpt lat="47.17847" lon="3.77733">
        <ele>264.7578125</ele>
        <time>2012-04-14T12:31:45Z</time>
      </trkpt>
      <trkpt lat="47.17846" lon="3.77722">
        <ele>266.49609375</ele>
        <time>2012-04-14T12:31:58Z</time>
      </trkpt>
      <trkpt lat="47.17847" lon="3.77714">
        <ele>267.14453125</ele>
        <time>2012-04-14T12:32:04Z</time>
      </trkpt>
      <trkpt lat="47.17847" lon="3.77686">
        <ele>270.609375</ele>
        <time>2012-04-14T12:32:21Z</time>
      </trkpt>
      <trkpt lat="47.17848" lon="3.77673">
        <ele>271.28125</ele>
        <time>2012-04-14T12:32:33Z</time>
      </trkpt>
      <trkpt lat="47.17849" lon="3.77659">
        <ele>272.23828125</ele>
        <time>2012-04-14T12:32:47Z</time>
      </trkpt>
      <trkpt lat="47.17853" lon="3.77635">
        <ele>272.72265625</ele>
        <time>2012-04-14T12:32:59Z</time>
      </trkpt>
      <trkpt lat="47.17853" lon="3.77633">
        <ele>272.640625</ele>
        <time>2012-04-14T12:33:02Z</time>
      </trkpt>
      <trkpt lat="47.17856" lon="3.77613">
        <ele>273.8984375</ele>
        <time>2012-04-14T12:33:16Z</time>
      </trkpt>
      <trkpt lat="47.17863" lon="3.77591">
        <ele>273.64453125</ele>
        <time>2012-04-14T12:33:29Z</time>
      </trkpt>
      <trkpt lat="47.17867" lon="3.77567">
        <ele>276.203125</ele>
        <time>2012-04-14T12:33:42Z</time>
      </trkpt>
      <trkpt lat="47.17873" lon="3.77548">
        <ele>277.19140625</ele>
        <time>2012-04-14T12:33:56Z</time>
      </trkpt>
      <trkpt lat="47.17881" lon="3.7753">
        <ele>278.17578125</ele>
        <time>2012-04-14T12:34:06Z</time>
      </trkpt>
      <trkpt lat="47.17885" lon="3.77522">
        <ele>278.203125</ele>
        <time>2012-04-14T12:34:10Z</time>
      </trkpt>
      <trkpt lat="47.17889" lon="3.77515">
        <ele>278.24609375</ele>
        <time>2012-04-14T12:34:14Z</time>
      </trkpt>
      <trkpt lat="47.1789" lon="3.77511">
        <ele>278.5859375</ele>
        <time>2012-04-14T12:34:17Z</time>
      </trkpt>
      <trkpt lat="47.17896" lon="3.77501">
        <ele>278.66796875</ele>
        <time>2012-04-14T12:34:23Z</time>
      </trkpt>
      <trkpt lat="47.17905" lon="3.77484">
        <ele>279.7578125</ele>
        <time>2012-04-14T12:34:33Z</time>
      </trkpt>
      <trkpt lat="47.17913" lon="3.77467">
        <ele>280.76953125</ele>
        <time>2012-04-14T12:34:48Z</time>
      </trkpt>
      <trkpt lat="47.17923" lon="3.77447">
        <ele>281.578125</ele>
        <time>2012-04-14T12:35:01Z</time>
      </trkpt>
      <trkpt lat="47.17932" lon="3.77428">
        <ele>283.12109375</ele>
        <time>2012-04-14T12:35:14Z</time>
      </trkpt>
      <trkpt lat="47.17939" lon="3.77412">
        <ele>284.703125</ele>
        <time>2012-04-14T12:35:25Z</time>
      </trkpt>
      <trkpt lat="47.17949" lon="3.77397">
        <ele>284.1953125</ele>
        <time>2012-04-14T12:35:40Z</time>
      </trkpt>
      <trkpt lat="47.17954" lon="3.77394">
        <ele>282.7578125</ele>
        <time>2012-04-14T12:35:45Z</time>
      </trkpt>
      <trkpt lat="47.17956" lon="3.77391">
        <ele>282.64453125</ele>
        <time>2012-04-14T12:35:47Z</time>
      </trkpt>
      <trkpt lat="47.17972" lon="3.77375">
        <ele>280.23046875</ele>
        <time>2012-04-14T12:36:02Z</time>
      </trkpt>
      <trkpt lat="47.17975" lon="3.77375">
        <ele>278.984375</ele>
        <time>2012-04-14T12:36:05Z</time>
      </trkpt>
      <trkpt lat="47.17986" lon="3.77361">
        <ele>278.1953125</ele>
        <time>2012-04-14T12:36:16Z</time>
      </trkpt>
      <trkpt lat="47.17998" lon="3.77345">
        <ele>275.6953125</ele>
        <time>2012-04-14T12:36:31Z</time>
      </trkpt>
      <trkpt lat="47.18007" lon="3.77339">
        <ele>272.1796875</ele>
        <time>2012-04-14T12:36:43Z</time>
      </trkpt>
      <trkpt lat="47.18024" lon="3.77329">
        <ele>266.08984375</ele>
        <time>2012-04-14T12:36:59Z</time>
      </trkpt>
      <trkpt lat="47.18025" lon="3.77328">
        <ele>265.69140625</ele>
        <time>2012-04-14T12:37:00Z</time>
      </trkpt>
      <trkpt lat="47.1803" lon="3.77317">
        <ele>263.96484375</ele>
        <time>2012-04-14T12:37:08Z</time>
      </trkpt>
      <trkpt lat="47.1803" lon="3.77314">
        <ele>263.8125</ele>
        <time>2012-04-14T12:37:10Z</time>
      </trkpt>
      <trkpt lat="47.18032" lon="3.77292">
        <ele>263.703125</ele>
        <time>2012-04-14T12:37:20Z</time>
      </trkpt>
      <trkpt lat="47.18032" lon="3.77285">
        <ele>263.5</ele>
        <time>2012-04-14T12:37:25Z</time>
      </trkpt>
      <trkpt lat="47.18032" lon="3.77264">
        <ele>263.3515625</ele>
        <time>2012-04-14T12:37:40Z</time>
      </trkpt>
      <trkpt lat="47.18032" lon="3.77259">
        <ele>263.421875</ele>
        <time>2012-04-14T12:37:43Z</time>
      </trkpt>
      <trkpt lat="47.18031" lon="3.77244">
        <ele>263.66796875</ele>
        <time>2012-04-14T12:37:52Z</time>
      </trkpt>
      <trkpt lat="47.18028" lon="3.77225">
        <ele>264.265625</ele>
        <time>2012-04-14T12:38:06Z</time>
      </trkpt>
      <trkpt lat="47.18026" lon="3.77218">
        <ele>264.72265625</ele>
        <time>2012-04-14T12:38:13Z</time>
      </trkpt>
      <trkpt lat="47.18023" lon="3.77202">
        <ele>265.390625</ele>
        <time>2012-04-14T12:38:24Z</time>
      </trkpt>
      <trkpt lat="47.1802" lon="3.77184">
        <ele>265.91796875</ele>
        <time>2012-04-14T12:38:33Z</time>
      </trkpt>
      <trkpt lat="47.1802" lon="3.77181">
        <ele>265.90234375</ele>
        <time>2012-04-14T12:38:34Z</time>
      </trkpt>
      <trkpt lat="47.18018" lon="3.77166">
        <ele>266.08984375</ele>
        <time>2012-04-14T12:38:48Z</time>
      </trkpt>
      <trkpt lat="47.18014" lon="3.77154">
        <ele>266.921875</ele>
        <time>2012-04-14T12:39:01Z</time>
      </trkpt>
      <trkpt lat="47.18013" lon="3.77141">
        <ele>266.78515625</ele>
        <time>2012-04-14T12:39:13Z</time>
      </trkpt>
      <trkpt lat="47.1801" lon="3.77128">
        <ele>267.29296875</ele>
        <time>2012-04-14T12:39:27Z</time>
      </trkpt>
      <trkpt lat="47.1801" lon="3.77125">
        <ele>267.3828125</ele>
        <time>2012-04-14T12:39:31Z</time>
      </trkpt>
      <trkpt lat="47.1801" lon="3.7711">
        <ele>266.8984375</ele>
        <time>2012-04-14T12:39:42Z</time>
      </trkpt>
      <trkpt lat="47.18009" lon="3.77108">
        <ele>266.953125</ele>
        <time>2012-04-14T12:39:44Z</time>
      </trkpt>
      <trkpt lat="47.18009" lon="3.77105">
        <ele>266.8828125</ele>
        <time>2012-04-14T12:39:45Z</time>
      </trkpt>
      <trkpt lat="47.18009" lon="3.77086">
        <ele>266.00390625</ele>
        <time>2012-04-14T12:39:56Z</time>
      </trkpt>
      <trkpt lat="47.18009" lon="3.77069">
        <ele>265.390625</ele>
        <time>2012-04-14T12:40:05Z</time>
      </trkpt>
      <trkpt lat="47.18008" lon="3.77058">
        <ele>265.0390625</ele>
        <time>2012-04-14T12:40:10Z</time>
      </trkpt>
      <trkpt lat="47.18005" lon="3.77047">
        <ele>265.30078125</ele>
        <time>2012-04-14T12:40:21Z</time>
      </trkpt>
      <trkpt lat="47.18004" lon="3.77036">
        <ele>264.71875</ele>
        <time>2012-04-14T12:40:26Z</time>
      </trkpt>
      <trkpt lat="47.18002" lon="3.77016">
        <ele>264.1484375</ele>
        <time>2012-04-14T12:40:37Z</time>
      </trkpt>
      <trkpt lat="47.18001" lon="3.77007">
        <ele>264.20703125</ele>
        <time>2012-04-14T12:40:43Z</time>
      </trkpt>
      <trkpt lat="47.17997" lon="3.76988">
        <ele>264.48828125</ele>
        <time>2012-04-14T12:40:57Z</time>
      </trkpt>
      <trkpt lat="47.17997" lon="3.76977">
        <ele>263.77734375</ele>
        <time>2012-04-14T12:41:06Z</time>
      </trkpt>
      <trkpt lat="47.17997" lon="3.76962">
        <ele>262.66796875</ele>
        <time>2012-04-14T12:41:20Z</time>
      </trkpt>
      <trkpt lat="47.17995" lon="3.76934">
        <ele>261.54296875</ele>
        <time>2012-04-14T12:41:36Z</time>
      </trkpt>
      <trkpt lat="47.17993" lon="3.7693">
        <ele>262.0546875</ele>
        <time>2012-04-14T12:41:39Z</time>
      </trkpt>
      <trkpt lat="47.17989" lon="3.76908">
        <ele>262.06640625</ele>
        <time>2012-04-14T12:41:55Z</time>
      </trkpt>
      <trkpt lat="47.17985" lon="3.76894">
        <ele>263.03125</ele>
        <time>2012-04-14T12:42:09Z</time>
      </trkpt>
      <trkpt lat="47.17984" lon="3.76887">
        <ele>263.13671875</ele>
        <time>2012-04-14T12:42:16Z</time>
      </trkpt>
      <trkpt lat="47.17981" lon="3.76872">
        <ele>263.6484375</ele>
        <time>2012-04-14T12:42:28Z</time>
      </trkpt>
      <trkpt lat="47.17983" lon="3.76848">
        <ele>262.0546875</ele>
        <time>2012-04-14T12:42:42Z</time>
      </trkpt>
      <trkpt lat="47.1798" lon="3.76825">
        <ele>261.77734375</ele>
        <time>2012-04-14T12:42:56Z</time>
      </trkpt>
      <trkpt lat="47.17979" lon="3.76807">
        <ele>261.7421875</ele>
        <time>2012-04-14T12:43:08Z</time>
      </trkpt>
      <trkpt lat="47.17977" lon="3.76792">
        <ele>261.5859375</ele>
        <time>2012-04-14T12:43:16Z</time>
      </trkpt>
      <trkpt lat="47.17976" lon="3.76783">
        <ele>261.64453125</ele>
        <time>2012-04-14T12:43:20Z</time>
      </trkpt>
      <trkpt lat="47.17974" lon="3.7676">
        <ele>260.84375</ele>
        <time>2012-04-14T12:43:33Z</time>
      </trkpt>
      <trkpt lat="47.17971" lon="3.76733">
        <ele>259.625</ele>
        <time>2012-04-14T12:43:47Z</time>
      </trkpt>
      <trkpt lat="47.17969" lon="3.76717">
        <ele>259.3515625</ele>
        <time>2012-04-14T12:43:59Z</time>
      </trkpt>
      <trkpt lat="47.17968" lon="3.76703">
        <ele>258.53515625</ele>
        <time>2012-04-14T12:44:10Z</time>
      </trkpt>
      <trkpt lat="47.17965" lon="3.7668">
        <ele>257.7265625</ele>
        <time>2012-04-14T12:44:22Z</time>
      </trkpt>
      <trkpt lat="47.17958" lon="3.76657">
        <ele>257.8046875</ele>
        <time>2012-04-14T12:44:35Z</time>
      </trkpt>
      <trkpt lat="47.17958" lon="3.76656">
        <ele>257.69140625</ele>
        <time>2012-04-14T12:44:36Z</time>
      </trkpt>
      <trkpt lat="47.17949" lon="3.76633">
        <ele>257.88671875</ele>
        <time>2012-04-14T12:44:51Z</time>
      </trkpt>
      <trkpt lat="47.17949" lon="3.76631">
        <ele>257.9609375</ele>
        <time>2012-04-14T12:44:53Z</time>
      </trkpt>
      <trkpt lat="47.17945" lon="3.76621">
        <ele>258.4453125</ele>
        <time>2012-04-14T12:45:00Z</time>
      </trkpt>
      <trkpt lat="47.17943" lon="3.76618">
        <ele>258.76171875</ele>
        <time>2012-04-14T12:45:02Z</time>
      </trkpt>
      <trkpt lat="47.17937" lon="3.76601">
        <ele>259.6328125</ele>
        <time>2012-04-14T12:45:15Z</time>
      </trkpt>
      <trkpt lat="47.17931" lon="3.7659">
        <ele>260.4296875</ele>
        <time>2012-04-14T12:45:26Z</time>
      </trkpt>
      <trkpt lat="47.17921" lon="3.76581">
        <ele>262.20703125</ele>
        <time>2012-04-14T12:45:40Z</time>
      </trkpt>
      <trkpt lat="47.1791" lon="3.76568">
        <ele>263.46484375</ele>
        <time>2012-04-14T12:45:52Z</time>
      </trkpt>
      <trkpt lat="47.17906" lon="3.76562">
        <ele>263.71484375</ele>
        <time>2012-04-14T12:45:55Z</time>
      </trkpt>
      <trkpt lat="47.17902" lon="3.76553">
        <ele>263.78125</ele>
        <time>2012-04-14T12:46:01Z</time>
      </trkpt>
      <trkpt lat="47.17892" lon="3.76532">
        <ele>264.16796875</ele>
        <time>2012-04-14T12:46:17Z</time>
      </trkpt>
      <trkpt lat="47.17887" lon="3.76518">
        <ele>264.54296875</ele>
        <time>2012-04-14T12:46:26Z</time>
      </trkpt>
      <trkpt lat="47.17878" lon="3.76495">
        <ele>264.5625</ele>
        <time>2012-04-14T12:46:39Z</time>
      </trkpt>
      <trkpt lat="47.1787" lon="3.76483">
        <ele>265.12109375</ele>
        <time>2012-04-14T12:46:55Z</time>
      </trkpt>
      <trkpt lat="47.17864" lon="3.76472">
        <ele>265.24609375</ele>
        <time>2012-04-14T12:47:05Z</time>
      </trkpt>
      <trkpt lat="47.17861" lon="3.76467">
        <ele>265.26953125</ele>
        <time>2012-04-14T12:47:09Z</time>
      </trkpt>
      <trkpt lat="47.17854" lon="3.76454">
        <ele>265.10546875</ele>
        <time>2012-04-14T12:47:19Z</time>
      </trkpt>
      <trkpt lat="47.17846" lon="3.76441">
        <ele>264.91796875</ele>
        <time>2012-04-14T12:47:28Z</time>
      </trkpt>
      <trkpt lat="47.17842" lon="3.76427">
        <ele>264.39453125</ele>
        <time>2012-04-14T12:47:36Z</time>
      </trkpt>
      <trkpt lat="47.17833" lon="3.76406">
        <ele>264.25390625</ele>
        <time>2012-04-14T12:47:49Z</time>
      </trkpt>
      <trkpt lat="47.1782" lon="3.76392">
        <ele>265.03515625</ele>
        <time>2012-04-14T12:48:02Z</time>
      </trkpt>
      <trkpt lat="47.17816" lon="3.76385">
        <ele>264.921875</ele>
        <time>2012-04-14T12:48:09Z</time>
      </trkpt>
      <trkpt lat="47.17809" lon="3.76376">
        <ele>264.9140625</ele>
        <time>2012-04-14T12:48:18Z</time>
      </trkpt>
      <trkpt lat="47.17792" lon="3.76371">
        <ele>266.84765625</ele>
        <time>2012-04-14T12:48:32Z</time>
      </trkpt>
      <trkpt lat="47.17789" lon="3.76366">
        <ele>266.6015625</ele>
        <time>2012-04-14T12:48:36Z</time>
      </trkpt>
      <trkpt lat="47.1778" lon="3.76353">
        <ele>266.234375</ele>
        <time>2012-04-14T12:48:50Z</time>
      </trkpt>
      <trkpt lat="47.17763" lon="3.76347">
        <ele>267.00390625</ele>
        <time>2012-04-14T12:49:05Z</time>
      </trkpt>
      <trkpt lat="47.17746" lon="3.7634">
        <ele>266.625</ele>
        <time>2012-04-14T12:49:19Z</time>
      </trkpt>
      <trkpt lat="47.17737" lon="3.76335">
        <ele>266.2734375</ele>
        <time>2012-04-14T12:49:27Z</time>
      </trkpt>
      <trkpt lat="47.17726" lon="3.76331">
        <ele>266.05078125</ele>
        <time>2012-04-14T12:49:40Z</time>
      </trkpt>
      <trkpt lat="47.17719" lon="3.76329">
        <ele>266.0625</ele>
        <time>2012-04-14T12:50:07Z</time>
      </trkpt>
      <trkpt lat="47.17709" lon="3.76322">
        <ele>265.56640625</ele>
        <time>2012-04-14T12:50:19Z</time>
      </trkpt>
      <trkpt lat="47.17693" lon="3.76323">
        <ele>266.3125</ele>
        <time>2012-04-14T12:50:31Z</time>
      </trkpt>
      <trkpt lat="47.17675" lon="3.76322">
        <ele>267.3828125</ele>
        <time>2012-04-14T12:50:46Z</time>
      </trkpt>
      <trkpt lat="47.1767" lon="3.76304">
        <ele>266.61328125</ele>
        <time>2012-04-14T12:51:01Z</time>
      </trkpt>
      <trkpt lat="47.17671" lon="3.76294">
        <ele>266.015625</ele>
        <time>2012-04-14T12:51:07Z</time>
      </trkpt>
      <trkpt lat="47.17671" lon="3.7629">
        <ele>265.85546875</ele>
        <time>2012-04-14T12:51:09Z</time>
      </trkpt>
      <trkpt lat="47.1767" lon="3.76278">
        <ele>265.73046875</ele>
        <time>2012-04-14T12:51:15Z</time>
      </trkpt>
      <trkpt lat="47.17669" lon="3.76263">
        <ele>265.6796875</ele>
        <time>2012-04-14T12:51:23Z</time>
      </trkpt>
      <trkpt lat="47.17668" lon="3.76253">
        <ele>265.859375</ele>
        <time>2012-04-14T12:51:27Z</time>
      </trkpt>
      <trkpt lat="47.17662" lon="3.76228">
        <ele>266.69140625</ele>
        <time>2012-04-14T12:51:42Z</time>
      </trkpt>
      <trkpt lat="47.17659" lon="3.76212">
        <ele>267.18359375</ele>
        <time>2012-04-14T12:51:50Z</time>
      </trkpt>
      <trkpt lat="47.17658" lon="3.76206">
        <ele>267.265625</ele>
        <time>2012-04-14T12:51:53Z</time>
      </trkpt>
      <trkpt lat="47.17653" lon="3.76182">
        <ele>268.21875</ele>
        <time>2012-04-14T12:52:07Z</time>
      </trkpt>
      <trkpt lat="47.17653" lon="3.76172">
        <ele>268.54296875</ele>
        <time>2012-04-14T12:52:14Z</time>
      </trkpt>
      <trkpt lat="47.17655" lon="3.76151">
        <ele>268.7890625</ele>
        <time>2012-04-14T12:52:27Z</time>
      </trkpt>
      <trkpt lat="47.17657" lon="3.76131">
        <ele>268.35546875</ele>
        <time>2012-04-14T12:52:38Z</time>
      </trkpt>
      <trkpt lat="47.17659" lon="3.76117">
        <ele>267.921875</ele>
        <time>2012-04-14T12:52:49Z</time>
      </trkpt>
      <trkpt lat="47.17661" lon="3.76108">
        <ele>267.703125</ele>
        <time>2012-04-14T12:52:54Z</time>
      </trkpt>
      <trkpt lat="47.17662" lon="3.76095">
        <ele>267.17578125</ele>
        <time>2012-04-14T12:52:59Z</time>
      </trkpt>
      <trkpt lat="47.17663" lon="3.76074">
        <ele>266.33203125</ele>
        <time>2012-04-14T12:53:10Z</time>
      </trkpt>
      <trkpt lat="47.17664" lon="3.76064">
        <ele>266.1171875</ele>
        <time>2012-04-14T12:53:14Z</time>
      </trkpt>
      <trkpt lat="47.17666" lon="3.7604">
        <ele>265.55078125</ele>
        <time>2012-04-14T12:53:28Z</time>
      </trkpt>
      <trkpt lat="47.17667" lon="3.76012">
        <ele>265.13671875</ele>
        <time>2012-04-14T12:53:40Z</time>
      </trkpt>
      <trkpt lat="47.17667" lon="3.76002">
        <ele>265.0234375</ele>
        <time>2012-04-14T12:53:49Z</time>
      </trkpt>
      <trkpt lat="47.17668" lon="3.75989">
        <ele>264.7265625</ele>
        <time>2012-04-14T12:53:55Z</time>
      </trkpt>
      <trkpt lat="47.17671" lon="3.75957">
        <ele>263.48828125</ele>
        <time>2012-04-14T12:54:10Z</time>
      </trkpt>
      <trkpt lat="47.17671" lon="3.75939">
        <ele>263.59765625</ele>
        <time>2012-04-14T12:54:21Z</time>
      </trkpt>
      <trkpt lat="47.17673" lon="3.75919">
        <ele>263.04296875</ele>
        <time>2012-04-14T12:54:34Z</time>
      </trkpt>
      <trkpt lat="47.17675" lon="3.75893">
        <ele>263.30078125</ele>
        <time>2012-04-14T12:54:47Z</time>
      </trkpt>
      <trkpt lat="47.17677" lon="3.75851">
        <ele>264.4140625</ele>
        <time>2012-04-14T12:55:04Z</time>
      </trkpt>
      <trkpt lat="47.17675" lon="3.75838">
        <ele>266.046875</ele>
        <time>2012-04-14T12:55:16Z</time>
      </trkpt>
      <trkpt lat="47.17677" lon="3.75825">
        <ele>266.5234375</ele>
        <time>2012-04-14T12:55:27Z</time>
      </trkpt>
      <trkpt lat="47.17681" lon="3.75802">
        <ele>267.85546875</ele>
        <time>2012-04-14T12:55:40Z</time>
      </trkpt>
      <trkpt lat="47.17683" lon="3.75786">
        <ele>268.74609375</ele>
        <time>2012-04-14T12:55:52Z</time>
      </trkpt>
      <trkpt lat="47.17684" lon="3.75783">
        <ele>268.88671875</ele>
        <time>2012-04-14T12:55:54Z</time>
      </trkpt>
      <trkpt lat="47.17692" lon="3.75765">
        <ele>268.75</ele>
        <time>2012-04-14T12:56:08Z</time>
      </trkpt>
      <trkpt lat="47.17693" lon="3.7576">
        <ele>269.01953125</ele>
        <time>2012-04-14T12:56:11Z</time>
      </trkpt>
      <trkpt lat="47.17698" lon="3.75744">
        <ele>269.92578125</ele>
        <time>2012-04-14T12:56:23Z</time>
      </trkpt>
      <trkpt lat="47.17701" lon="3.75743">
        <ele>269.4765625</ele>
        <time>2012-04-14T12:56:25Z</time>
      </trkpt>
      <trkpt lat="47.17703" lon="3.75736">
        <ele>269.6484375</ele>
        <time>2012-04-14T12:56:29Z</time>
      </trkpt>
      <trkpt lat="47.17712" lon="3.75721">
        <ele>269.34375</ele>
        <time>2012-04-14T12:56:41Z</time>
      </trkpt>
      <trkpt lat="47.17714" lon="3.75716">
        <ele>269.25</ele>
        <time>2012-04-14T12:56:45Z</time>
      </trkpt>
      <trkpt lat="47.17723" lon="3.75701">
        <ele>269.21484375</ele>
        <time>2012-04-14T12:56:56Z</time>
      </trkpt>
      <trkpt lat="47.17724" lon="3.75701">
        <ele>269.15234375</ele>
        <time>2012-04-14T12:56:57Z</time>
      </trkpt>
      <trkpt lat="47.17728" lon="3.75696">
        <ele>269.00390625</ele>
        <time>2012-04-14T12:57:01Z</time>
      </trkpt>
      <trkpt lat="47.17732" lon="3.75688">
        <ele>269.38671875</ele>
        <time>2012-04-14T12:57:07Z</time>
      </trkpt>
      <trkpt lat="47.17733" lon="3.75687">
        <ele>269.31640625</ele>
        <time>2012-04-14T12:57:08Z</time>
      </trkpt>
      <trkpt lat="47.17739" lon="3.75671">
        <ele>270.8515625</ele>
        <time>2012-04-14T12:57:17Z</time>
      </trkpt>
      <trkpt lat="47.17741" lon="3.75669">
        <ele>270.8359375</ele>
        <time>2012-04-14T12:57:19Z</time>
      </trkpt>
      <trkpt lat="47.17746" lon="3.7566">
        <ele>271.31640625</ele>
        <time>2012-04-14T12:57:25Z</time>
      </trkpt>
      <trkpt lat="47.17751" lon="3.75653">
        <ele>271.30859375</ele>
        <time>2012-04-14T12:57:30Z</time>
      </trkpt>
      <trkpt lat="47.17753" lon="3.75651">
        <ele>271.17578125</ele>
        <time>2012-04-14T12:57:32Z</time>
      </trkpt>
      <trkpt lat="47.17754" lon="3.75648">
        <ele>271.37109375</ele>
        <time>2012-04-14T12:57:34Z</time>
      </trkpt>
      <trkpt lat="47.1777" lon="3.75631">
        <ele>271.00390625</ele>
        <time>2012-04-14T12:57:48Z</time>
      </trkpt>
      <trkpt lat="47.17773" lon="3.75627">
        <ele>271.16015625</ele>
        <time>2012-04-14T12:57:52Z</time>
      </trkpt>
      <trkpt lat="47.17782" lon="3.75614">
        <ele>272.21875</ele>
        <time>2012-04-14T12:58:03Z</time>
      </trkpt>
      <trkpt lat="47.17792" lon="3.75604">
        <ele>272.19140625</ele>
        <time>2012-04-14T12:58:12Z</time>
      </trkpt>
      <trkpt lat="47.17805" lon="3.7559">
        <ele>273.04296875</ele>
        <time>2012-04-14T12:58:26Z</time>
      </trkpt>
      <trkpt lat="47.17805" lon="3.75589">
        <ele>273.1796875</ele>
        <time>2012-04-14T12:58:27Z</time>
      </trkpt>
      <trkpt lat="47.17814" lon="3.75583">
        <ele>273.17578125</ele>
        <time>2012-04-14T12:58:35Z</time>
      </trkpt>
      <trkpt lat="47.17829" lon="3.75575">
        <ele>272.71484375</ele>
        <time>2012-04-14T12:58:46Z</time>
      </trkpt>
      <trkpt lat="47.17835" lon="3.75569">
        <ele>272.66015625</ele>
        <time>2012-04-14T12:58:53Z</time>
      </trkpt>
      <trkpt lat="47.1784" lon="3.75566">
        <ele>272.4375</ele>
        <time>2012-04-14T12:58:57Z</time>
      </trkpt>
      <trkpt lat="47.17855" lon="3.75554">
        <ele>271.796875</ele>
        <time>2012-04-14T12:59:10Z</time>
      </trkpt>
      <trkpt lat="47.17865" lon="3.7555">
        <ele>270.69140625</ele>
        <time>2012-04-14T12:59:18Z</time>
      </trkpt>
      <trkpt lat="47.17868" lon="3.75549">
        <ele>270.375</ele>
        <time>2012-04-14T12:59:21Z</time>
      </trkpt>
      <trkpt lat="47.17882" lon="3.75537">
        <ele>269.10546875</ele>
        <time>2012-04-14T12:59:34Z</time>
      </trkpt>
      <trkpt lat="47.17889" lon="3.75535">
        <ele>268.0703125</ele>
        <time>2012-04-14T12:59:40Z</time>
      </trkpt>
      <trkpt lat="47.17898" lon="3.75531">
        <ele>266.83203125</ele>
        <time>2012-04-14T12:59:45Z</time>
      </trkpt>
      <trkpt lat="47.17907" lon="3.75514">
        <ele>266.05078125</ele>
        <time>2012-04-14T13:00:00Z</time>
      </trkpt>
      <trkpt lat="47.17908" lon="3.75513">
        <ele>265.8984375</ele>
        <time>2012-04-14T13:00:01Z</time>
      </trkpt>
      <trkpt lat="47.17912" lon="3.75505">
        <ele>264.82421875</ele>
        <time>2012-04-14T13:00:09Z</time>
      </trkpt>
      <trkpt lat="47.17906" lon="3.75488">
        <ele>265.05078125</ele>
        <time>2012-04-14T13:00:22Z</time>
      </trkpt>
      <trkpt lat="47.17898" lon="3.75467">
        <ele>264.91796875</ele>
        <time>2012-04-14T13:00:36Z</time>
      </trkpt>
      <trkpt lat="47.17883" lon="3.75455">
        <ele>265.8125</ele>
        <time>2012-04-14T13:00:52Z</time>
      </trkpt>
      <trkpt lat="47.17875" lon="3.75438">
        <ele>265.08984375</ele>
        <time>2012-04-14T13:01:03Z</time>
      </trkpt>
      <trkpt lat="47.17868" lon="3.75428">
        <ele>264.98046875</ele>
        <time>2012-04-14T13:01:09Z</time>
      </trkpt>
      <trkpt lat="47.1785" lon="3.75408">
        <ele>265.33203125</ele>
        <time>2012-04-14T13:01:25Z</time>
      </trkpt>
      <trkpt lat="47.17832" lon="3.7539">
        <ele>265.890625</ele>
        <time>2012-04-14T13:01:41Z</time>
      </trkpt>
      <trkpt lat="47.17818" lon="3.75374">
        <ele>266.26171875</ele>
        <time>2012-04-14T13:01:55Z</time>
      </trkpt>
      <trkpt lat="47.17813" lon="3.75368">
        <ele>266.171875</ele>
        <time>2012-04-14T13:02:00Z</time>
      </trkpt>
      <trkpt lat="47.17803" lon="3.75354">
        <ele>265.8671875</ele>
        <time>2012-04-14T13:02:10Z</time>
      </trkpt>
      <trkpt lat="47.17792" lon="3.75328">
        <ele>264.28125</ele>
        <time>2012-04-14T13:02:26Z</time>
      </trkpt>
      <trkpt lat="47.17776" lon="3.75309">
        <ele>264.3125</ele>
        <time>2012-04-14T13:02:41Z</time>
      </trkpt>
      <trkpt lat="47.17761" lon="3.75297">
        <ele>265.26171875</ele>
        <time>2012-04-14T13:02:53Z</time>
      </trkpt>
      <trkpt lat="47.17747" lon="3.75287">
        <ele>265.83984375</ele>
        <time>2012-04-14T13:03:04Z</time>
      </trkpt>
      <trkpt lat="47.1774" lon="3.75281">
        <ele>265.80859375</ele>
        <time>2012-04-14T13:03:10Z</time>
      </trkpt>
      <trkpt lat="47.17733" lon="3.75266">
        <ele>264.9453125</ele>
        <time>2012-04-14T13:03:18Z</time>
      </trkpt>
      <trkpt lat="47.17715" lon="3.75241">
        <ele>264.53515625</ele>
        <time>2012-04-14T13:03:34Z</time>
      </trkpt>
      <trkpt lat="47.17704" lon="3.75218">
        <ele>262.00390625</ele>
        <time>2012-04-14T13:03:50Z</time>
      </trkpt>
      <trkpt lat="47.17688" lon="3.75209">
        <ele>262.38671875</ele>
        <time>2012-04-14T13:04:03Z</time>
      </trkpt>
      <trkpt lat="47.17676" lon="3.75192">
        <ele>260.7734375</ele>
        <time>2012-04-14T13:04:16Z</time>
      </trkpt>
      <trkpt lat="47.17666" lon="3.75186">
        <ele>260.24609375</ele>
        <time>2012-04-14T13:04:25Z</time>
      </trkpt>
      <trkpt lat="47.17658" lon="3.75179">
        <ele>259.49609375</ele>
        <time>2012-04-14T13:04:30Z</time>
      </trkpt>
      <trkpt lat="47.17613" lon="3.75203">
        <ele>264.171875</ele>
        <time>2012-04-14T13:04:41Z</time>
      </trkpt>
      <trkpt lat="47.1761" lon="3.75197">
        <ele>263.35546875</ele>
        <time>2012-04-14T13:04:48Z</time>
      </trkpt>
      <trkpt lat="47.176" lon="3.75194">
        <ele>262.859375</ele>
        <time>2012-04-14T13:04:58Z</time>
      </trkpt>
      <trkpt lat="47.17595" lon="3.75193">
        <ele>262.83203125</ele>
        <time>2012-04-14T13:05:02Z</time>
      </trkpt>
      <trkpt lat="47.17584" lon="3.75186">
        <ele>262.24609375</ele>
        <time>2012-04-14T13:05:16Z</time>
      </trkpt>
      <trkpt lat="47.17573" lon="3.75185">
        <ele>262.421875</ele>
        <time>2012-04-14T13:05:26Z</time>
      </trkpt>
      <trkpt lat="47.17556" lon="3.75186">
        <ele>262.2109375</ele>
        <time>2012-04-14T13:05:37Z</time>
      </trkpt>
      <trkpt lat="47.17537" lon="3.75198">
        <ele>263.375</ele>
        <time>2012-04-14T13:05:50Z</time>
      </trkpt>
      <trkpt lat="47.1753" lon="3.75205">
        <ele>264.1328125</ele>
        <time>2012-04-14T13:05:54Z</time>
      </trkpt>
      <trkpt lat="47.17516" lon="3.75212">
        <ele>264.63671875</ele>
        <time>2012-04-14T13:06:04Z</time>
      </trkpt>
      <trkpt lat="47.17505" lon="3.75214">
        <ele>264.49609375</ele>
        <time>2012-04-14T13:06:12Z</time>
      </trkpt>
      <trkpt lat="47.17487" lon="3.75225">
        <ele>264.95703125</ele>
        <time>2012-04-14T13:06:26Z</time>
      </trkpt>
      <trkpt lat="47.17472" lon="3.75228">
        <ele>264.79296875</ele>
        <time>2012-04-14T13:06:39Z</time>
      </trkpt>
      <trkpt lat="47.17469" lon="3.7523">
        <ele>264.9140625</ele>
        <time>2012-04-14T13:06:41Z</time>
      </trkpt>
      <trkpt lat="47.17448" lon="3.75242">
        <ele>265.0625</ele>
        <time>2012-04-14T13:06:56Z</time>
      </trkpt>
      <trkpt lat="47.17429" lon="3.75249">
        <ele>264.625</ele>
        <time>2012-04-14T13:07:10Z</time>
      </trkpt>
      <trkpt lat="47.17426" lon="3.75247">
        <ele>264.515625</ele>
        <time>2012-04-14T13:07:17Z</time>
      </trkpt>
      <trkpt lat="47.17424" lon="3.75245">
        <ele>264.37109375</ele>
        <time>2012-04-14T13:07:19Z</time>
      </trkpt>
      <trkpt lat="47.17413" lon="3.75253">
        <ele>265.44140625</ele>
        <time>2012-04-14T13:07:24Z</time>
      </trkpt>
      <trkpt lat="47.17415" lon="3.75239">
        <ele>264.4609375</ele>
        <time>2012-04-14T13:07:39Z</time>
      </trkpt>
      <trkpt lat="47.17418" lon="3.75226">
        <ele>263.765625</ele>
        <time>2012-04-14T13:07:48Z</time>
      </trkpt>
      <trkpt lat="47.17422" lon="3.75205">
        <ele>262.5703125</ele>
        <time>2012-04-14T13:08:01Z</time>
      </trkpt>
      <trkpt lat="47.17423" lon="3.75186">
        <ele>261.82421875</ele>
        <time>2012-04-14T13:08:14Z</time>
      </trkpt>
      <trkpt lat="47.17423" lon="3.75177">
        <ele>261.40234375</ele>
        <time>2012-04-14T13:08:20Z</time>
      </trkpt>
      <trkpt lat="47.17423" lon="3.75154">
        <ele>260.79296875</ele>
        <time>2012-04-14T13:08:30Z</time>
      </trkpt>
      <trkpt lat="47.17426" lon="3.75138">
        <ele>260.88671875</ele>
        <time>2012-04-14T13:08:39Z</time>
      </trkpt>
      <trkpt lat="47.17428" lon="3.75128">
        <ele>260.77734375</ele>
        <time>2012-04-14T13:08:44Z</time>
      </trkpt>
      <trkpt lat="47.17431" lon="3.75119">
        <ele>260.546875</ele>
        <time>2012-04-14T13:08:50Z</time>
      </trkpt>
      <trkpt lat="47.17434" lon="3.75105">
        <ele>260.640625</ele>
        <time>2012-04-14T13:08:56Z</time>
      </trkpt>
      <trkpt lat="47.1744" lon="3.75087">
        <ele>259.90234375</ele>
        <time>2012-04-14T13:09:04Z</time>
      </trkpt>
      <trkpt lat="47.17445" lon="3.75066">
        <ele>259.66796875</ele>
        <time>2012-04-14T13:09:15Z</time>
      </trkpt>
      <trkpt lat="47.17449" lon="3.75048">
        <ele>259.4765625</ele>
        <time>2012-04-14T13:09:26Z</time>
      </trkpt>
      <trkpt lat="47.17451" lon="3.75035">
        <ele>259.30078125</ele>
        <time>2012-04-14T13:09:31Z</time>
      </trkpt>
      <trkpt lat="47.17453" lon="3.75012">
        <ele>258.9375</ele>
        <time>2012-04-14T13:09:44Z</time>
      </trkpt>
      <trkpt lat="47.17453" lon="3.74985">
        <ele>258.515625</ele>
        <time>2012-04-14T13:09:58Z</time>
      </trkpt>
      <trkpt lat="47.17452" lon="3.74968">
        <ele>258.1640625</ele>
        <time>2012-04-14T13:10:08Z</time>
      </trkpt>
      <trkpt lat="47.17448" lon="3.74939">
        <ele>258.58984375</ele>
        <time>2012-04-14T13:10:23Z</time>
      </trkpt>
      <trkpt lat="47.17441" lon="3.74903">
        <ele>258.15625</ele>
        <time>2012-04-14T13:10:38Z</time>
      </trkpt>
      <trkpt lat="47.17438" lon="3.74885">
        <ele>257.4375</ele>
        <time>2012-04-14T13:10:46Z</time>
      </trkpt>
      <trkpt lat="47.17436" lon="3.74878">
        <ele>257.2734375</ele>
        <time>2012-04-14T13:10:51Z</time>
      </trkpt>
      <trkpt lat="47.17433" lon="3.74868">
        <ele>257.24609375</ele>
        <time>2012-04-14T13:10:56Z</time>
      </trkpt>
      <trkpt lat="47.17429" lon="3.74842">
        <ele>256.41015625</ele>
        <time>2012-04-14T13:11:07Z</time>
      </trkpt>
      <trkpt lat="47.17419" lon="3.74811">
        <ele>255.19140625</ele>
        <time>2012-04-14T13:11:19Z</time>
      </trkpt>
      <trkpt lat="47.17413" lon="3.74794">
        <ele>254.80078125</ele>
        <time>2012-04-14T13:11:31Z</time>
      </trkpt>
      <trkpt lat="47.17406" lon="3.74784">
        <ele>254.9765625</ele>
        <time>2012-04-14T13:11:39Z</time>
      </trkpt>
      <trkpt lat="47.17388" lon="3.74769">
        <ele>255.984375</ele>
        <time>2012-04-14T13:11:54Z</time>
      </trkpt>
      <trkpt lat="47.17374" lon="3.74755">
        <ele>256.31640625</ele>
        <time>2012-04-14T13:12:06Z</time>
      </trkpt>
      <trkpt lat="47.17354" lon="3.74743">
        <ele>256.50390625</ele>
        <time>2012-04-14T13:12:21Z</time>
      </trkpt>
      <trkpt lat="47.17338" lon="3.74742">
        <ele>257.53515625</ele>
        <time>2012-04-14T13:12:35Z</time>
      </trkpt>
      <trkpt lat="47.17323" lon="3.7474">
        <ele>258.43359375</ele>
        <time>2012-04-14T13:12:48Z</time>
      </trkpt>
      <trkpt lat="47.17308" lon="3.74739">
        <ele>259.046875</ele>
        <time>2012-04-14T13:12:57Z</time>
      </trkpt>
      <trkpt lat="47.17302" lon="3.74739">
        <ele>259.35546875</ele>
        <time>2012-04-14T13:13:00Z</time>
      </trkpt>
      <trkpt lat="47.17281" lon="3.74745">
        <ele>261.734375</ele>
        <time>2012-04-14T13:13:14Z</time>
      </trkpt>
      <trkpt lat="47.17279" lon="3.74743">
        <ele>261.90625</ele>
        <time>2012-04-14T13:13:18Z</time>
      </trkpt>
      <trkpt lat="47.17279" lon="3.7474">
        <ele>262</ele>
        <time>2012-04-14T13:13:20Z</time>
      </trkpt>
      <trkpt lat="47.1728" lon="3.74723">
        <ele>261.65234375</ele>
        <time>2012-04-14T13:13:32Z</time>
      </trkpt>
      <trkpt lat="47.17281" lon="3.7472">
        <ele>261.48046875</ele>
        <time>2012-04-14T13:13:35Z</time>
      </trkpt>
      <trkpt lat="47.17291" lon="3.74697">
        <ele>259.98046875</ele>
        <time>2012-04-14T13:13:50Z</time>
      </trkpt>
      <trkpt lat="47.17294" lon="3.74693">
        <ele>259.6484375</ele>
        <time>2012-04-14T13:13:53Z</time>
      </trkpt>
      <trkpt lat="47.17296" lon="3.7469">
        <ele>259.40234375</ele>
        <time>2012-04-14T13:13:55Z</time>
      </trkpt>
      <trkpt lat="47.17301" lon="3.74685">
        <ele>259.0078125</ele>
        <time>2012-04-14T13:13:59Z</time>
      </trkpt>
      <trkpt lat="47.17305" lon="3.74677">
        <ele>258.84765625</ele>
        <time>2012-04-14T13:14:05Z</time>
      </trkpt>
      <trkpt lat="47.17315" lon="3.74661">
        <ele>257.4140625</ele>
        <time>2012-04-14T13:14:15Z</time>
      </trkpt>
      <trkpt lat="47.17326" lon="3.74635">
        <ele>257.09375</ele>
        <time>2012-04-14T13:14:28Z</time>
      </trkpt>
      <trkpt lat="47.17329" lon="3.74625">
        <ele>257.1640625</ele>
        <time>2012-04-14T13:14:37Z</time>
      </trkpt>
      <trkpt lat="47.17337" lon="3.7461">
        <ele>256.28515625</ele>
        <time>2012-04-14T13:14:48Z</time>
      </trkpt>
      <trkpt lat="47.17343" lon="3.74592">
        <ele>256.05078125</ele>
        <time>2012-04-14T13:14:57Z</time>
      </trkpt>
      <trkpt lat="47.17354" lon="3.74563">
        <ele>255.66796875</ele>
        <time>2012-04-14T13:15:11Z</time>
      </trkpt>
      <trkpt lat="47.17355" lon="3.74559">
        <ele>255.68359375</ele>
        <time>2012-04-14T13:15:14Z</time>
      </trkpt>
      <trkpt lat="47.17357" lon="3.74551">
        <ele>255.8203125</ele>
        <time>2012-04-14T13:15:19Z</time>
      </trkpt>
      <trkpt lat="47.17359" lon="3.74547">
        <ele>255.75</ele>
        <time>2012-04-14T13:15:21Z</time>
      </trkpt>
      <trkpt lat="47.17362" lon="3.74539">
        <ele>255.734375</ele>
        <time>2012-04-14T13:15:26Z</time>
      </trkpt>
      <trkpt lat="47.17368" lon="3.74516">
        <ele>255.68359375</ele>
        <time>2012-04-14T13:15:38Z</time>
      </trkpt>
      <trkpt lat="47.17369" lon="3.74512">
        <ele>255.48828125</ele>
        <time>2012-04-14T13:15:40Z</time>
      </trkpt>
      <trkpt lat="47.17369" lon="3.74486">
        <ele>255.78515625</ele>
        <time>2012-04-14T13:15:53Z</time>
      </trkpt>
      <trkpt lat="47.17369" lon="3.74484">
        <ele>255.91796875</ele>
        <time>2012-04-14T13:15:54Z</time>
      </trkpt>
      <trkpt lat="47.17368" lon="3.74478">
        <ele>256.2421875</ele>
        <time>2012-04-14T13:15:57Z</time>
      </trkpt>
      <trkpt lat="47.17364" lon="3.74449">
        <ele>257.3203125</ele>
        <time>2012-04-14T13:16:09Z</time>
      </trkpt>
      <trkpt lat="47.17359" lon="3.74426">
        <ele>257.765625</ele>
        <time>2012-04-14T13:16:22Z</time>
      </trkpt>
      <trkpt lat="47.17356" lon="3.74415">
        <ele>258.28515625</ele>
        <time>2012-04-14T13:16:28Z</time>
      </trkpt>
      <trkpt lat="47.17351" lon="3.74398">
        <ele>258.9609375</ele>
        <time>2012-04-14T13:16:37Z</time>
      </trkpt>
      <trkpt lat="47.17345" lon="3.74375">
        <ele>259.1953125</ele>
        <time>2012-04-14T13:16:47Z</time>
      </trkpt>
      <trkpt lat="47.17343" lon="3.74353">
        <ele>259.15234375</ele>
        <time>2012-04-14T13:16:59Z</time>
      </trkpt>
      <trkpt lat="47.17344" lon="3.74342">
        <ele>259.13671875</ele>
        <time>2012-04-14T13:17:05Z</time>
      </trkpt>
      <trkpt lat="47.17351" lon="3.74309">
        <ele>259.27734375</ele>
        <time>2012-04-14T13:17:18Z</time>
      </trkpt>
      <trkpt lat="47.1736" lon="3.74281">
        <ele>260.27734375</ele>
        <time>2012-04-14T13:17:32Z</time>
      </trkpt>
      <trkpt lat="47.17368" lon="3.74261">
        <ele>261.34375</ele>
        <time>2012-04-14T13:17:45Z</time>
      </trkpt>
      <trkpt lat="47.17374" lon="3.74252">
        <ele>261.4375</ele>
        <time>2012-04-14T13:17:53Z</time>
      </trkpt>
      <trkpt lat="47.17386" lon="3.74223">
        <ele>261.80859375</ele>
        <time>2012-04-14T13:18:07Z</time>
      </trkpt>
      <trkpt lat="47.17389" lon="3.74209">
        <ele>261.91015625</ele>
        <time>2012-04-14T13:18:19Z</time>
      </trkpt>
      <trkpt lat="47.17391" lon="3.74199">
        <ele>261.89453125</ele>
        <time>2012-04-14T13:18:24Z</time>
      </trkpt>
      <trkpt lat="47.17391" lon="3.74194">
        <ele>262.03515625</ele>
        <time>2012-04-14T13:18:27Z</time>
      </trkpt>
      <trkpt lat="47.17396" lon="3.74181">
        <ele>261.63671875</ele>
        <time>2012-04-14T13:18:31Z</time>
      </trkpt>
      <trkpt lat="47.17397" lon="3.74159">
        <ele>262.08984375</ele>
        <time>2012-04-14T13:18:44Z</time>
      </trkpt>
      <trkpt lat="47.17397" lon="3.74144">
        <ele>262.17578125</ele>
        <time>2012-04-14T13:18:53Z</time>
      </trkpt>
      <trkpt lat="47.17395" lon="3.74125">
        <ele>262.66796875</ele>
        <time>2012-04-14T13:19:02Z</time>
      </trkpt>
      <trkpt lat="47.17393" lon="3.74089">
        <ele>262.953125</ele>
        <time>2012-04-14T13:19:16Z</time>
      </trkpt>
      <trkpt lat="47.17403" lon="3.74061">
        <ele>261.02734375</ele>
        <time>2012-04-14T13:19:31Z</time>
      </trkpt>
      <trkpt lat="47.17408" lon="3.74051">
        <ele>260.5</ele>
        <time>2012-04-14T13:19:39Z</time>
      </trkpt>
      <trkpt lat="47.17413" lon="3.74035">
        <ele>260.00390625</ele>
        <time>2012-04-14T13:19:51Z</time>
      </trkpt>
      <trkpt lat="47.17415" lon="3.74013">
        <ele>259.79296875</ele>
        <time>2012-04-14T13:20:04Z</time>
      </trkpt>
      <trkpt lat="47.17411" lon="3.73981">
        <ele>259.81640625</ele>
        <time>2012-04-14T13:20:17Z</time>
      </trkpt>
      <trkpt lat="47.17407" lon="3.73963">
        <ele>259.62890625</ele>
        <time>2012-04-14T13:20:23Z</time>
      </trkpt>
      <trkpt lat="47.174" lon="3.73946">
        <ele>259.4375</ele>
        <time>2012-04-14T13:20:35Z</time>
      </trkpt>
      <trkpt lat="47.17392" lon="3.73931">
        <ele>258.55859375</ele>
        <time>2012-04-14T13:20:43Z</time>
      </trkpt>
      <trkpt lat="47.17388" lon="3.73924">
        <ele>257.98828125</ele>
        <time>2012-04-14T13:20:48Z</time>
      </trkpt>
      <trkpt lat="47.17386" lon="3.73922">
        <ele>257.8203125</ele>
        <time>2012-04-14T13:20:50Z</time>
      </trkpt>
      <trkpt lat="47.17379" lon="3.73916">
        <ele>257.4609375</ele>
        <time>2012-04-14T13:20:55Z</time>
      </trkpt>
      <trkpt lat="47.1737" lon="3.73913">
        <ele>257.203125</ele>
        <time>2012-04-14T13:21:01Z</time>
      </trkpt>
      <trkpt lat="47.17353" lon="3.73898">
        <ele>255.6171875</ele>
        <time>2012-04-14T13:21:14Z</time>
      </trkpt>
      <trkpt lat="47.17344" lon="3.73886">
        <ele>254.45703125</ele>
        <time>2012-04-14T13:21:25Z</time>
      </trkpt>
      <trkpt lat="47.17339" lon="3.73887">
        <ele>254.6875</ele>
        <time>2012-04-14T13:21:28Z</time>
      </trkpt>
      <trkpt lat="47.17335" lon="3.73886">
        <ele>254.7265625</ele>
        <time>2012-04-14T13:21:31Z</time>
      </trkpt>
      <trkpt lat="47.17335" lon="3.73885">
        <ele>254.671875</ele>
        <time>2012-04-14T13:21:35Z</time>
      </trkpt>
      <trkpt lat="47.17346" lon="3.7388">
        <ele>254.0625</ele>
        <time>2012-04-14T13:21:46Z</time>
      </trkpt>
      <trkpt lat="47.1736" lon="3.73877">
        <ele>253.80078125</ele>
        <time>2012-04-14T13:22:01Z</time>
      </trkpt>
      <trkpt lat="47.17373" lon="3.73879">
        <ele>253.68359375</ele>
        <time>2012-04-14T13:22:14Z</time>
      </trkpt>
      <trkpt lat="47.17389" lon="3.73872">
        <ele>252.68359375</ele>
        <time>2012-04-14T13:22:28Z</time>
      </trkpt>
      <trkpt lat="47.17391" lon="3.7387">
        <ele>252.51171875</ele>
        <time>2012-04-14T13:22:31Z</time>
      </trkpt>
      <trkpt lat="47.17394" lon="3.73869">
        <ele>252.3203125</ele>
        <time>2012-04-14T13:22:33Z</time>
      </trkpt>
      <trkpt lat="47.17417" lon="3.73853">
        <ele>250.5</ele>
        <time>2012-04-14T13:22:50Z</time>
      </trkpt>
      <trkpt lat="47.17435" lon="3.73845">
        <ele>249.71875</ele>
        <time>2012-04-14T13:23:01Z</time>
      </trkpt>
      <trkpt lat="47.17453" lon="3.73842">
        <ele>248.41796875</ele>
        <time>2012-04-14T13:23:14Z</time>
      </trkpt>
      <trkpt lat="47.17462" lon="3.7384">
        <ele>247.90234375</ele>
        <time>2012-04-14T13:23:20Z</time>
      </trkpt>
      <trkpt lat="47.17472" lon="3.73838">
        <ele>247.54296875</ele>
        <time>2012-04-14T13:23:28Z</time>
      </trkpt>
      <trkpt lat="47.17491" lon="3.73841">
        <ele>247.00390625</ele>
        <time>2012-04-14T13:23:40Z</time>
      </trkpt>
      <trkpt lat="47.175" lon="3.73847">
        <ele>246.80859375</ele>
        <time>2012-04-14T13:23:45Z</time>
      </trkpt>
      <trkpt lat="47.1751" lon="3.73859">
        <ele>246.0625</ele>
        <time>2012-04-14T13:23:56Z</time>
      </trkpt>
      <trkpt lat="47.1752" lon="3.7388">
        <ele>245.30078125</ele>
        <time>2012-04-14T13:24:11Z</time>
      </trkpt>
      <trkpt lat="47.17524" lon="3.73904">
        <ele>245.09375</ele>
        <time>2012-04-14T13:24:23Z</time>
      </trkpt>
      <trkpt lat="47.17529" lon="3.7393">
        <ele>244.65234375</ele>
        <time>2012-04-14T13:24:39Z</time>
      </trkpt>
      <trkpt lat="47.17529" lon="3.73933">
        <ele>244.60546875</ele>
        <time>2012-04-14T13:24:42Z</time>
      </trkpt>
      <trkpt lat="47.17526" lon="3.73944">
        <ele>244.375</ele>
        <time>2012-04-14T13:24:47Z</time>
      </trkpt>
      <trkpt lat="47.17523" lon="3.73972">
        <ele>243.55078125</ele>
        <time>2012-04-14T13:25:02Z</time>
      </trkpt>
      <trkpt lat="47.17519" lon="3.74003">
        <ele>242.671875</ele>
        <time>2012-04-14T13:25:16Z</time>
      </trkpt>
      <trkpt lat="47.17517" lon="3.74039">
        <ele>241.375</ele>
        <time>2012-04-14T13:25:32Z</time>
      </trkpt>
      <trkpt lat="47.17519" lon="3.74058">
        <ele>240.73828125</ele>
        <time>2012-04-14T13:25:43Z</time>
      </trkpt>
      <trkpt lat="47.1752" lon="3.74065">
        <ele>240.5703125</ele>
        <time>2012-04-14T13:25:46Z</time>
      </trkpt>
      <trkpt lat="47.1753" lon="3.74091">
        <ele>240.27734375</ele>
        <time>2012-04-14T13:26:00Z</time>
      </trkpt>
      <trkpt lat="47.17531" lon="3.74096">
        <ele>240.203125</ele>
        <time>2012-04-14T13:26:02Z</time>
      </trkpt>
      <trkpt lat="47.17534" lon="3.74106">
        <ele>239.98828125</ele>
        <time>2012-04-14T13:26:08Z</time>
      </trkpt>
      <trkpt lat="47.17537" lon="3.7411">
        <ele>239.96875</ele>
        <time>2012-04-14T13:26:11Z</time>
      </trkpt>
      <trkpt lat="47.17549" lon="3.74131">
        <ele>240.73828125</ele>
        <time>2012-04-14T13:26:21Z</time>
      </trkpt>
      <trkpt lat="47.17562" lon="3.74162">
        <ele>241.05859375</ele>
        <time>2012-04-14T13:26:35Z</time>
      </trkpt>
      <trkpt lat="47.17562" lon="3.74172">
        <ele>240.75390625</ele>
        <time>2012-04-14T13:26:39Z</time>
      </trkpt>
      <trkpt lat="47.17564" lon="3.74183">
        <ele>240.5859375</ele>
        <time>2012-04-14T13:26:46Z</time>
      </trkpt>
      <trkpt lat="47.17578" lon="3.74196">
        <ele>241</ele>
        <time>2012-04-14T13:26:56Z</time>
      </trkpt>
      <trkpt lat="47.17583" lon="3.74227">
        <ele>237.484375</ele>
        <time>2012-04-14T13:27:11Z</time>
      </trkpt>
      <trkpt lat="47.17581" lon="3.74242">
        <ele>234.52734375</ele>
        <time>2012-04-14T13:27:18Z</time>
      </trkpt>
      <trkpt lat="47.17579" lon="3.74269">
        <ele>231.92578125</ele>
        <time>2012-04-14T13:27:31Z</time>
      </trkpt>
      <trkpt lat="47.17585" lon="3.74269">
        <ele>232.37109375</ele>
        <time>2012-04-14T13:27:56Z</time>
      </trkpt>
      <trkpt lat="47.17586" lon="3.74267">
        <ele>232.55078125</ele>
        <time>2012-04-14T13:28:03Z</time>
      </trkpt>
      <trkpt lat="47.17585" lon="3.74258">
        <ele>233.328125</ele>
        <time>2012-04-14T13:28:18Z</time>
      </trkpt>
      <trkpt lat="47.17573" lon="3.7427">
        <ele>231.34765625</ele>
        <time>2012-04-14T13:28:38Z</time>
      </trkpt>
      <trkpt lat="47.17573" lon="3.74274">
        <ele>231.015625</ele>
        <time>2012-04-14T13:29:05Z</time>
      </trkpt>
      <trkpt lat="47.17578" lon="3.74274">
        <ele>231.40625</ele>
        <time>2012-04-14T13:29:14Z</time>
      </trkpt>
      <trkpt lat="47.17583" lon="3.74273">
        <ele>231.8515625</ele>
        <time>2012-04-14T13:29:19Z</time>
      </trkpt>
      <trkpt lat="47.17587" lon="3.74275">
        <ele>231.9140625</ele>
        <time>2012-04-14T13:29:25Z</time>
      </trkpt>
      <trkpt lat="47.17584" lon="3.7428">
        <ele>231.3046875</ele>
        <time>2012-04-14T13:29:29Z</time>
      </trkpt>
      <trkpt lat="47.17582" lon="3.74287">
        <ele>230.48046875</ele>
        <time>2012-04-14T13:29:33Z</time>
      </trkpt>
      <trkpt lat="47.17577" lon="3.74305">
        <ele>229.046875</ele>
        <time>2012-04-14T13:29:44Z</time>
      </trkpt>
      <trkpt lat="47.17575" lon="3.74322">
        <ele>228.3671875</ele>
        <time>2012-04-14T13:29:52Z</time>
      </trkpt>
      <trkpt lat="47.17575" lon="3.74341">
        <ele>228.1015625</ele>
        <time>2012-04-14T13:30:02Z</time>
      </trkpt>
      <trkpt lat="47.1758" lon="3.74346">
        <ele>228.12109375</ele>
        <time>2012-04-14T13:30:06Z</time>
      </trkpt>
      <trkpt lat="47.17609" lon="3.74358">
        <ele>228</ele>
        <time>2012-04-14T13:30:19Z</time>
      </trkpt>
      <trkpt lat="47.17619" lon="3.74366">
        <ele>228</ele>
        <time>2012-04-14T13:30:25Z</time>
      </trkpt>
      <trkpt lat="47.17625" lon="3.74372">
        <ele>228</ele>
        <time>2012-04-14T13:30:29Z</time>
      </trkpt>
      <trkpt lat="47.17628" lon="3.74376">
        <ele>228.0625</ele>
        <time>2012-04-14T13:30:32Z</time>
      </trkpt>
      <trkpt lat="47.17633" lon="3.7438">
        <ele>228.23046875</ele>
        <time>2012-04-14T13:30:36Z</time>
      </trkpt>
      <trkpt lat="47.17639" lon="3.74389">
        <ele>228.80078125</ele>
        <time>2012-04-14T13:30:43Z</time>
      </trkpt>
      <trkpt lat="47.17658" lon="3.74406">
        <ele>230.78125</ele>
        <time>2012-04-14T13:30:57Z</time>
      </trkpt>
      <trkpt lat="47.17665" lon="3.74416">
        <ele>231.84765625</ele>
        <time>2012-04-14T13:31:03Z</time>
      </trkpt>
      <trkpt lat="47.17667" lon="3.74417">
        <ele>232.078125</ele>
        <time>2012-04-14T13:31:05Z</time>
      </trkpt>
      <trkpt lat="47.1768" lon="3.74415">
        <ele>232.41796875</ele>
        <time>2012-04-14T13:31:13Z</time>
      </trkpt>
      <trkpt lat="47.17696" lon="3.74404">
        <ele>231.640625</ele>
        <time>2012-04-14T13:31:26Z</time>
      </trkpt>
      <trkpt lat="47.17716" lon="3.74388">
        <ele>230.1875</ele>
        <time>2012-04-14T13:31:42Z</time>
      </trkpt>
      <trkpt lat="47.17736" lon="3.74376">
        <ele>230.7109375</ele>
        <time>2012-04-14T13:31:57Z</time>
      </trkpt>
      <trkpt lat="47.17753" lon="3.74373">
        <ele>231.9296875</ele>
        <time>2012-04-14T13:32:09Z</time>
      </trkpt>
      <trkpt lat="47.17763" lon="3.74373">
        <ele>232.78515625</ele>
        <time>2012-04-14T13:32:16Z</time>
      </trkpt>
      <trkpt lat="47.17777" lon="3.74369">
        <ele>233.34375</ele>
        <time>2012-04-14T13:32:27Z</time>
      </trkpt>
      <trkpt lat="47.17784" lon="3.74369">
        <ele>233.87890625</ele>
        <time>2012-04-14T13:32:33Z</time>
      </trkpt>
      <trkpt lat="47.17792" lon="3.7437">
        <ele>234.54296875</ele>
        <time>2012-04-14T13:32:38Z</time>
      </trkpt>
      <trkpt lat="47.17798" lon="3.74369">
        <ele>234.94921875</ele>
        <time>2012-04-14T13:32:42Z</time>
      </trkpt>
      <trkpt lat="47.17811" lon="3.74365">
        <ele>235.33984375</ele>
        <time>2012-04-14T13:32:50Z</time>
      </trkpt>
      <trkpt lat="47.17817" lon="3.74362">
        <ele>235.53515625</ele>
        <time>2012-04-14T13:32:56Z</time>
      </trkpt>
      <trkpt lat="47.17819" lon="3.74362">
        <ele>235.67578125</ele>
        <time>2012-04-14T13:32:58Z</time>
      </trkpt>
      <trkpt lat="47.17823" lon="3.7436">
        <ele>235.6484375</ele>
        <time>2012-04-14T13:33:04Z</time>
      </trkpt>
      <trkpt lat="47.17843" lon="3.74363">
        <ele>236.66796875</ele>
        <time>2012-04-14T13:33:18Z</time>
      </trkpt>
      <trkpt lat="47.17868" lon="3.74363">
        <ele>239.1171875</ele>
        <time>2012-04-14T13:33:32Z</time>
      </trkpt>
      <trkpt lat="47.17876" lon="3.7436">
        <ele>239.56640625</ele>
        <time>2012-04-14T13:33:36Z</time>
      </trkpt>
      <trkpt lat="47.17885" lon="3.74358">
        <ele>240.02734375</ele>
        <time>2012-04-14T13:33:45Z</time>
      </trkpt>
      <trkpt lat="47.17893" lon="3.74356">
        <ele>240.328125</ele>
        <time>2012-04-14T13:33:49Z</time>
      </trkpt>
      <trkpt lat="47.17918" lon="3.74354">
        <ele>241.92578125</ele>
        <time>2012-04-14T13:34:05Z</time>
      </trkpt>
      <trkpt lat="47.17942" lon="3.74352">
        <ele>243.77734375</ele>
        <time>2012-04-14T13:34:20Z</time>
      </trkpt>
      <trkpt lat="47.17954" lon="3.74353">
        <ele>245.1875</ele>
        <time>2012-04-14T13:34:29Z</time>
      </trkpt>
      <trkpt lat="47.17961" lon="3.74352">
        <ele>245.953125</ele>
        <time>2012-04-14T13:34:35Z</time>
      </trkpt>
      <trkpt lat="47.17982" lon="3.74352">
        <ele>248.2421875</ele>
        <time>2012-04-14T13:34:50Z</time>
      </trkpt>
      <trkpt lat="47.18002" lon="3.74355">
        <ele>250.1171875</ele>
        <time>2012-04-14T13:35:06Z</time>
      </trkpt>
      <trkpt lat="47.18021" lon="3.74357">
        <ele>251.62109375</ele>
        <time>2012-04-14T13:35:19Z</time>
      </trkpt>
      <trkpt lat="47.18042" lon="3.74356">
        <ele>253.08203125</ele>
        <time>2012-04-14T13:35:33Z</time>
      </trkpt>
      <trkpt lat="47.18058" lon="3.74361">
        <ele>254.45703125</ele>
        <time>2012-04-14T13:35:46Z</time>
      </trkpt>
      <trkpt lat="47.18079" lon="3.7436">
        <ele>255.60546875</ele>
        <time>2012-04-14T13:36:01Z</time>
      </trkpt>
      <trkpt lat="47.18103" lon="3.74358">
        <ele>256.59765625</ele>
        <time>2012-04-14T13:36:17Z</time>
      </trkpt>
      <trkpt lat="47.18105" lon="3.74358">
        <ele>256.703125</ele>
        <time>2012-04-14T13:36:18Z</time>
      </trkpt>
      <trkpt lat="47.18126" lon="3.74356">
        <ele>258.05078125</ele>
        <time>2012-04-14T13:36:33Z</time>
      </trkpt>
      <trkpt lat="47.18146" lon="3.74349">
        <ele>258.28515625</ele>
        <time>2012-04-14T13:36:48Z</time>
      </trkpt>
      <trkpt lat="47.18169" lon="3.74337">
        <ele>258.4296875</ele>
        <time>2012-04-14T13:37:05Z</time>
      </trkpt>
      <trkpt lat="47.18192" lon="3.74326">
        <ele>259.16015625</ele>
        <time>2012-04-14T13:37:21Z</time>
      </trkpt>
      <trkpt lat="47.18211" lon="3.74316">
        <ele>259.85546875</ele>
        <time>2012-04-14T13:37:35Z</time>
      </trkpt>
      <trkpt lat="47.1823" lon="3.74305">
        <ele>259.39453125</ele>
        <time>2012-04-14T13:37:50Z</time>
      </trkpt>
      <trkpt lat="47.18245" lon="3.74292">
        <ele>258.75390625</ele>
        <time>2012-04-14T13:38:03Z</time>
      </trkpt>
      <trkpt lat="47.18267" lon="3.74275">
        <ele>258.4375</ele>
        <time>2012-04-14T13:38:17Z</time>
      </trkpt>
      <trkpt lat="47.18287" lon="3.74257">
        <ele>258.57421875</ele>
        <time>2012-04-14T13:38:32Z</time>
      </trkpt>
      <trkpt lat="47.18307" lon="3.74244">
        <ele>259.1328125</ele>
        <time>2012-04-14T13:38:47Z</time>
      </trkpt>
      <trkpt lat="47.18321" lon="3.7423">
        <ele>259.09375</ele>
        <time>2012-04-14T13:38:57Z</time>
      </trkpt>
      <trkpt lat="47.18336" lon="3.74222">
        <ele>259.58984375</ele>
        <time>2012-04-14T13:39:09Z</time>
      </trkpt>
      <trkpt lat="47.1836" lon="3.74203">
        <ele>259.9140625</ele>
        <time>2012-04-14T13:39:27Z</time>
      </trkpt>
      <trkpt lat="47.18385" lon="3.74192">
        <ele>260.58203125</ele>
        <time>2012-04-14T13:39:46Z</time>
      </trkpt>
      <trkpt lat="47.1841" lon="3.74181">
        <ele>260.71875</ele>
        <time>2012-04-14T13:40:04Z</time>
      </trkpt>
      <trkpt lat="47.18422" lon="3.74178">
        <ele>260.62109375</ele>
        <time>2012-04-14T13:40:12Z</time>
      </trkpt>
      <trkpt lat="47.18424" lon="3.74178">
        <ele>260.62890625</ele>
        <time>2012-04-14T13:40:14Z</time>
      </trkpt>
      <trkpt lat="47.18447" lon="3.74171">
        <ele>260.37109375</ele>
        <time>2012-04-14T13:40:30Z</time>
      </trkpt>
      <trkpt lat="47.18452" lon="3.74172">
        <ele>260.4140625</ele>
        <time>2012-04-14T13:40:34Z</time>
      </trkpt>
      <trkpt lat="47.18463" lon="3.74198">
        <ele>261.15625</ele>
        <time>2012-04-14T13:40:50Z</time>
      </trkpt>
      <trkpt lat="47.18484" lon="3.74216">
        <ele>261.09765625</ele>
        <time>2012-04-14T13:41:07Z</time>
      </trkpt>
      <trkpt lat="47.18498" lon="3.74227">
        <ele>260.93359375</ele>
        <time>2012-04-14T13:41:18Z</time>
      </trkpt>
      <trkpt lat="47.18503" lon="3.74236">
        <ele>261.10546875</ele>
        <time>2012-04-14T13:41:23Z</time>
      </trkpt>
      <trkpt lat="47.18504" lon="3.74242">
        <ele>261.2890625</ele>
        <time>2012-04-14T13:41:26Z</time>
      </trkpt>
      <trkpt lat="47.18503" lon="3.7425">
        <ele>261.609375</ele>
        <time>2012-04-14T13:41:30Z</time>
      </trkpt>
      <trkpt lat="47.18496" lon="3.74275">
        <ele>262.76171875</ele>
        <time>2012-04-14T13:41:43Z</time>
      </trkpt>
      <trkpt lat="47.18493" lon="3.74293">
        <ele>263.53125</ele>
        <time>2012-04-14T13:41:57Z</time>
      </trkpt>
      <trkpt lat="47.18491" lon="3.74298">
        <ele>263.734375</ele>
        <time>2012-04-14T13:42:24Z</time>
      </trkpt>
      <trkpt lat="47.18496" lon="3.74293">
        <ele>263.421875</ele>
        <time>2012-04-14T13:42:46Z</time>
      </trkpt>
      <trkpt lat="47.18496" lon="3.74293">
        <ele>263.38671875</ele>
        <time>2012-04-14T13:42:48Z</time>
      </trkpt>
      <trkpt lat="47.18495" lon="3.74295">
        <ele>263.52734375</ele>
        <time>2012-04-14T13:42:52Z</time>
      </trkpt>
      <trkpt lat="47.1849" lon="3.74312">
        <ele>264.68359375</ele>
        <time>2012-04-14T13:43:02Z</time>
      </trkpt>
      <trkpt lat="47.18489" lon="3.74317">
        <ele>265.05859375</ele>
        <time>2012-04-14T13:43:05Z</time>
      </trkpt>
      <trkpt lat="47.18488" lon="3.7434">
        <ele>266.3046875</ele>
        <time>2012-04-14T13:43:16Z</time>
      </trkpt>
      <trkpt lat="47.18484" lon="3.74367">
        <ele>267.48046875</ele>
        <time>2012-04-14T13:43:32Z</time>
      </trkpt>
      <trkpt lat="47.18486" lon="3.74369">
        <ele>267.484375</ele>
        <time>2012-04-14T13:43:57Z</time>
      </trkpt>
      <trkpt lat="47.18487" lon="3.74372">
        <ele>267.5625</ele>
        <time>2012-04-14T13:44:23Z</time>
      </trkpt>
      <trkpt lat="47.18485" lon="3.74382">
        <ele>267.98046875</ele>
        <time>2012-04-14T13:44:28Z</time>
      </trkpt>
      <trkpt lat="47.18484" lon="3.74394">
        <ele>268.51171875</ele>
        <time>2012-04-14T13:44:36Z</time>
      </trkpt>
      <trkpt lat="47.18481" lon="3.74408">
        <ele>269.23828125</ele>
        <time>2012-04-14T13:44:44Z</time>
      </trkpt>
      <trkpt lat="47.1847" lon="3.74435">
        <ele>271.0078125</ele>
        <time>2012-04-14T13:45:02Z</time>
      </trkpt>
      <trkpt lat="47.1847" lon="3.74442">
        <ele>271.3359375</ele>
        <time>2012-04-14T13:45:11Z</time>
      </trkpt>
      <trkpt lat="47.18469" lon="3.74442">
        <ele>271.45703125</ele>
        <time>2012-04-14T13:45:13Z</time>
      </trkpt>
      <trkpt lat="47.18467" lon="3.74447">
        <ele>271.796875</ele>
        <time>2012-04-14T13:45:18Z</time>
      </trkpt>
      <trkpt lat="47.18464" lon="3.74456">
        <ele>272.34375</ele>
        <time>2012-04-14T13:45:23Z</time>
      </trkpt>
      <trkpt lat="47.18464" lon="3.74462">
        <ele>272.625</ele>
        <time>2012-04-14T13:45:26Z</time>
      </trkpt>
      <trkpt lat="47.18458" lon="3.74476">
        <ele>273.390625</ele>
        <time>2012-04-14T13:45:35Z</time>
      </trkpt>
      <trkpt lat="47.18455" lon="3.74485">
        <ele>273.90234375</ele>
        <time>2012-04-14T13:45:39Z</time>
      </trkpt>
      <trkpt lat="47.18455" lon="3.74492">
        <ele>274.15625</ele>
        <time>2012-04-14T13:45:43Z</time>
      </trkpt>
      <trkpt lat="47.18454" lon="3.74495">
        <ele>274.328125</ele>
        <time>2012-04-14T13:45:46Z</time>
      </trkpt>
      <trkpt lat="47.18449" lon="3.74511">
        <ele>275.27734375</ele>
        <time>2012-04-14T13:45:56Z</time>
      </trkpt>
      <trkpt lat="47.18448" lon="3.74513">
        <ele>275.38671875</ele>
        <time>2012-04-14T13:45:57Z</time>
      </trkpt>
      <trkpt lat="47.18445" lon="3.74526">
        <ele>276.2265625</ele>
        <time>2012-04-14T13:46:09Z</time>
      </trkpt>
      <trkpt lat="47.18442" lon="3.74541">
        <ele>277.265625</ele>
        <time>2012-04-14T13:46:23Z</time>
      </trkpt>
      <trkpt lat="47.18437" lon="3.74554">
        <ele>278.390625</ele>
        <time>2012-04-14T13:46:35Z</time>
      </trkpt>
      <trkpt lat="47.18434" lon="3.74574">
        <ele>279.44921875</ele>
        <time>2012-04-14T13:46:47Z</time>
      </trkpt>
      <trkpt lat="47.18435" lon="3.7459">
        <ele>279.4296875</ele>
        <time>2012-04-14T13:46:57Z</time>
      </trkpt>
      <trkpt lat="47.18434" lon="3.74591">
        <ele>279.46484375</ele>
        <time>2012-04-14T13:46:58Z</time>
      </trkpt>
      <trkpt lat="47.18434" lon="3.74598">
        <ele>279.51171875</ele>
        <time>2012-04-14T13:47:02Z</time>
      </trkpt>
      <trkpt lat="47.18434" lon="3.74618">
        <ele>279.98046875</ele>
        <time>2012-04-14T13:47:13Z</time>
      </trkpt>
      <trkpt lat="47.18436" lon="3.7463">
        <ele>280.19140625</ele>
        <time>2012-04-14T13:47:20Z</time>
      </trkpt>
      <trkpt lat="47.18436" lon="3.74642">
        <ele>280.8046875</ele>
        <time>2012-04-14T13:47:26Z</time>
      </trkpt>
      <trkpt lat="47.18433" lon="3.74665">
        <ele>282.79296875</ele>
        <time>2012-04-14T13:47:41Z</time>
      </trkpt>
      <trkpt lat="47.18433" lon="3.74694">
        <ele>285.0625</ele>
        <time>2012-04-14T13:47:56Z</time>
      </trkpt>
      <trkpt lat="47.18433" lon="3.74697">
        <ele>285.22265625</ele>
        <time>2012-04-14T13:47:58Z</time>
      </trkpt>
      <trkpt lat="47.18438" lon="3.74719">
        <ele>286.2578125</ele>
        <time>2012-04-14T13:48:11Z</time>
      </trkpt>
      <trkpt lat="47.18444" lon="3.7474">
        <ele>287.60546875</ele>
        <time>2012-04-14T13:48:22Z</time>
      </trkpt>
      <trkpt lat="47.18454" lon="3.74763">
        <ele>288.7109375</ele>
        <time>2012-04-14T13:48:35Z</time>
      </trkpt>
      <trkpt lat="47.18455" lon="3.74768">
        <ele>289.08203125</ele>
        <time>2012-04-14T13:48:39Z</time>
      </trkpt>
      <trkpt lat="47.1846" lon="3.74786">
        <ele>290.31640625</ele>
        <time>2012-04-14T13:48:51Z</time>
      </trkpt>
      <trkpt lat="47.18462" lon="3.74797">
        <ele>291.3828125</ele>
        <time>2012-04-14T13:48:56Z</time>
      </trkpt>
      <trkpt lat="47.18467" lon="3.74824">
        <ele>294.3671875</ele>
        <time>2012-04-14T13:49:10Z</time>
      </trkpt>
      <trkpt lat="47.18469" lon="3.74838">
        <ele>295.91796875</ele>
        <time>2012-04-14T13:49:21Z</time>
      </trkpt>
      <trkpt lat="47.18468" lon="3.74857">
        <ele>298.203125</ele>
        <time>2012-04-14T13:49:34Z</time>
      </trkpt>
      <trkpt lat="47.18467" lon="3.74859">
        <ele>298.44921875</ele>
        <time>2012-04-14T13:49:36Z</time>
      </trkpt>
      <trkpt lat="47.18465" lon="3.74884">
        <ele>301.38671875</ele>
        <time>2012-04-14T13:49:50Z</time>
      </trkpt>
      <trkpt lat="47.18463" lon="3.74906">
        <ele>304.8203125</ele>
        <time>2012-04-14T13:50:03Z</time>
      </trkpt>
      <trkpt lat="47.18463" lon="3.74917">
        <ele>305.9921875</ele>
        <time>2012-04-14T13:50:09Z</time>
      </trkpt>
      <trkpt lat="47.18463" lon="3.74927">
        <ele>307.12890625</ele>
        <time>2012-04-14T13:50:14Z</time>
      </trkpt>
      <trkpt lat="47.18462" lon="3.74946">
        <ele>309.2421875</ele>
        <time>2012-04-14T13:50:25Z</time>
      </trkpt>
      <trkpt lat="47.18461" lon="3.7495">
        <ele>309.8515625</ele>
        <time>2012-04-14T13:50:28Z</time>
      </trkpt>
      <trkpt lat="47.18464" lon="3.7496">
        <ele>310.48046875</ele>
        <time>2012-04-14T13:50:34Z</time>
      </trkpt>
      <trkpt lat="47.18472" lon="3.7498">
        <ele>311.3671875</ele>
        <time>2012-04-14T13:50:45Z</time>
      </trkpt>
      <trkpt lat="47.18479" lon="3.75004">
        <ele>312.35546875</ele>
        <time>2012-04-14T13:50:56Z</time>
      </trkpt>
      <trkpt lat="47.18483" lon="3.75015">
        <ele>312.9296875</ele>
        <time>2012-04-14T13:51:02Z</time>
      </trkpt>
      <trkpt lat="47.18492" lon="3.7504">
        <ele>313.91015625</ele>
        <time>2012-04-14T13:51:17Z</time>
      </trkpt>
      <trkpt lat="47.18497" lon="3.7506">
        <ele>315.203125</ele>
        <time>2012-04-14T13:51:29Z</time>
      </trkpt>
      <trkpt lat="47.18511" lon="3.75093">
        <ele>316.20703125</ele>
        <time>2012-04-14T13:51:45Z</time>
      </trkpt>
      <trkpt lat="47.18513" lon="3.75097">
        <ele>316.26171875</ele>
        <time>2012-04-14T13:51:48Z</time>
      </trkpt>
      <trkpt lat="47.18516" lon="3.75107">
        <ele>316.875</ele>
        <time>2012-04-14T13:51:53Z</time>
      </trkpt>
      <trkpt lat="47.1853" lon="3.75128">
        <ele>317.23828125</ele>
        <time>2012-04-14T13:52:06Z</time>
      </trkpt>
      <trkpt lat="47.1854" lon="3.75149">
        <ele>318.015625</ele>
        <time>2012-04-14T13:52:19Z</time>
      </trkpt>
      <trkpt lat="47.1854" lon="3.75156">
        <ele>318.76953125</ele>
        <time>2012-04-14T13:52:26Z</time>
      </trkpt>
      <trkpt lat="47.1854" lon="3.75183">
        <ele>320.765625</ele>
        <time>2012-04-14T13:52:39Z</time>
      </trkpt>
      <trkpt lat="47.18544" lon="3.75202">
        <ele>321.375</ele>
        <time>2012-04-14T13:52:45Z</time>
      </trkpt>
      <trkpt lat="47.18555" lon="3.75237">
        <ele>322.296875</ele>
        <time>2012-04-14T13:53:03Z</time>
      </trkpt>
      <trkpt lat="47.18566" lon="3.75268">
        <ele>322.1171875</ele>
        <time>2012-04-14T13:53:18Z</time>
      </trkpt>
      <trkpt lat="47.1858" lon="3.75295">
        <ele>322.79296875</ele>
        <time>2012-04-14T13:53:31Z</time>
      </trkpt>
      <trkpt lat="47.18598" lon="3.7531">
        <ele>322.9921875</ele>
        <time>2012-04-14T13:53:45Z</time>
      </trkpt>
      <trkpt lat="47.18611" lon="3.75333">
        <ele>323.109375</ele>
        <time>2012-04-14T13:53:59Z</time>
      </trkpt>
      <trkpt lat="47.18618" lon="3.75347">
        <ele>323.53125</ele>
        <time>2012-04-14T13:54:08Z</time>
      </trkpt>
      <trkpt lat="47.18627" lon="3.75367">
        <ele>323.55078125</ele>
        <time>2012-04-14T13:54:21Z</time>
      </trkpt>
      <trkpt lat="47.18633" lon="3.75382">
        <ele>323.29296875</ele>
        <time>2012-04-14T13:54:28Z</time>
      </trkpt>
      <trkpt lat="47.1864" lon="3.75394">
        <ele>323.12109375</ele>
        <time>2012-04-14T13:54:36Z</time>
      </trkpt>
      <trkpt lat="47.18649" lon="3.75403">
        <ele>323.1171875</ele>
        <time>2012-04-14T13:54:44Z</time>
      </trkpt>
      <trkpt lat="47.18659" lon="3.75412">
        <ele>322.94921875</ele>
        <time>2012-04-14T13:54:53Z</time>
      </trkpt>
      <trkpt lat="47.1867" lon="3.75427">
        <ele>322.765625</ele>
        <time>2012-04-14T13:55:07Z</time>
      </trkpt>
      <trkpt lat="47.18673" lon="3.75431">
        <ele>322.796875</ele>
        <time>2012-04-14T13:55:10Z</time>
      </trkpt>
      <trkpt lat="47.18684" lon="3.75445">
        <ele>322.78515625</ele>
        <time>2012-04-14T13:55:21Z</time>
      </trkpt>
      <trkpt lat="47.18689" lon="3.75457">
        <ele>322.52734375</ele>
        <time>2012-04-14T13:55:28Z</time>
      </trkpt>
      <trkpt lat="47.18706" lon="3.75481">
        <ele>322.91796875</ele>
        <time>2012-04-14T13:55:39Z</time>
      </trkpt>
      <trkpt lat="47.18715" lon="3.75505">
        <ele>322.73828125</ele>
        <time>2012-04-14T13:55:53Z</time>
      </trkpt>
      <trkpt lat="47.18716" lon="3.75506">
        <ele>322.7109375</ele>
        <time>2012-04-14T13:55:54Z</time>
      </trkpt>
      <trkpt lat="47.1872" lon="3.75511">
        <ele>322.58984375</ele>
        <time>2012-04-14T13:55:58Z</time>
      </trkpt>
      <trkpt lat="47.18728" lon="3.75524">
        <ele>322.26953125</ele>
        <time>2012-04-14T13:56:07Z</time>
      </trkpt>
      <trkpt lat="47.18742" lon="3.75544">
        <ele>321.77734375</ele>
        <time>2012-04-14T13:56:20Z</time>
      </trkpt>
      <trkpt lat="47.18753" lon="3.75557">
        <ele>321.265625</ele>
        <time>2012-04-14T13:56:30Z</time>
      </trkpt>
      <trkpt lat="47.18766" lon="3.75579">
        <ele>320.87109375</ele>
        <time>2012-04-14T13:56:44Z</time>
      </trkpt>
      <trkpt lat="47.18772" lon="3.75589">
        <ele>320.37890625</ele>
        <time>2012-04-14T13:56:52Z</time>
      </trkpt>
      <trkpt lat="47.18776" lon="3.75594">
        <ele>320.1328125</ele>
        <time>2012-04-14T13:56:55Z</time>
      </trkpt>
      <trkpt lat="47.18779" lon="3.75601">
        <ele>319.91015625</ele>
        <time>2012-04-14T13:56:59Z</time>
      </trkpt>
      <trkpt lat="47.18791" lon="3.75618">
        <ele>319.05078125</ele>
        <time>2012-04-14T13:57:12Z</time>
      </trkpt>
      <trkpt lat="47.18804" lon="3.75632">
        <ele>318.5703125</ele>
        <time>2012-04-14T13:57:22Z</time>
      </trkpt>
      <trkpt lat="47.18809" lon="3.75637">
        <ele>318.4921875</ele>
        <time>2012-04-14T13:57:26Z</time>
      </trkpt>
      <trkpt lat="47.18821" lon="3.75651">
        <ele>318.62109375</ele>
        <time>2012-04-14T13:57:39Z</time>
      </trkpt>
      <trkpt lat="47.18832" lon="3.75662">
        <ele>318.43359375</ele>
        <time>2012-04-14T13:57:50Z</time>
      </trkpt>
      <trkpt lat="47.18839" lon="3.75675">
        <ele>317.60546875</ele>
        <time>2012-04-14T13:57:59Z</time>
      </trkpt>
      <trkpt lat="47.18847" lon="3.75687">
        <ele>317.03125</ele>
        <time>2012-04-14T13:58:05Z</time>
      </trkpt>
      <trkpt lat="47.18853" lon="3.75693">
        <ele>317</ele>
        <time>2012-04-14T13:58:11Z</time>
      </trkpt>
      <trkpt lat="47.18857" lon="3.75701">
        <ele>317</ele>
        <time>2012-04-14T13:58:17Z</time>
      </trkpt>
      <trkpt lat="47.18872" lon="3.75718">
        <ele>316.8828125</ele>
        <time>2012-04-14T13:58:29Z</time>
      </trkpt>
      <trkpt lat="47.18873" lon="3.7572">
        <ele>316.828125</ele>
        <time>2012-04-14T13:58:30Z</time>
      </trkpt>
      <trkpt lat="47.18885" lon="3.75726">
        <ele>316.74609375</ele>
        <time>2012-04-14T13:58:44Z</time>
      </trkpt>
      <trkpt lat="47.18895" lon="3.75738">
        <ele>316.76953125</ele>
        <time>2012-04-14T13:58:52Z</time>
      </trkpt>
      <trkpt lat="47.18904" lon="3.75744">
        <ele>316.953125</ele>
        <time>2012-04-14T13:59:03Z</time>
      </trkpt>
      <trkpt lat="47.18912" lon="3.75747">
        <ele>316.6484375</ele>
        <time>2012-04-14T13:59:13Z</time>
      </trkpt>
      <trkpt lat="47.18913" lon="3.75747">
        <ele>316.6328125</ele>
        <time>2012-04-14T13:59:15Z</time>
      </trkpt>
      <trkpt lat="47.18919" lon="3.75751">
        <ele>316.40625</ele>
        <time>2012-04-14T13:59:20Z</time>
      </trkpt>
      <trkpt lat="47.18921" lon="3.75751">
        <ele>316.3203125</ele>
        <time>2012-04-14T13:59:22Z</time>
      </trkpt>
      <trkpt lat="47.18942" lon="3.7576">
        <ele>315.40234375</ele>
        <time>2012-04-14T13:59:36Z</time>
      </trkpt>
      <trkpt lat="47.18945" lon="3.75763">
        <ele>315.31640625</ele>
        <time>2012-04-14T13:59:39Z</time>
      </trkpt>
      <trkpt lat="47.18961" lon="3.75771">
        <ele>314.703125</ele>
        <time>2012-04-14T13:59:50Z</time>
      </trkpt>
      <trkpt lat="47.18981" lon="3.75789">
        <ele>313.59765625</ele>
        <time>2012-04-14T14:00:06Z</time>
      </trkpt>
      <trkpt lat="47.18998" lon="3.75799">
        <ele>313.6015625</ele>
        <time>2012-04-14T14:00:19Z</time>
      </trkpt>
      <trkpt lat="47.19009" lon="3.75811">
        <ele>313.59765625</ele>
        <time>2012-04-14T14:00:33Z</time>
      </trkpt>
      <trkpt lat="47.19013" lon="3.75815">
        <ele>313.62890625</ele>
        <time>2012-04-14T14:00:38Z</time>
      </trkpt>
      <trkpt lat="47.19017" lon="3.75823">
        <ele>313.859375</ele>
        <time>2012-04-14T14:00:49Z</time>
      </trkpt>
      <trkpt lat="47.19019" lon="3.75825">
        <ele>313.9453125</ele>
        <time>2012-04-14T14:00:55Z</time>
      </trkpt>
      <trkpt lat="47.19031" lon="3.75835">
        <ele>314.5234375</ele>
        <time>2012-04-14T14:01:05Z</time>
      </trkpt>
      <trkpt lat="47.19037" lon="3.75844">
        <ele>315.17578125</ele>
        <time>2012-04-14T14:01:13Z</time>
      </trkpt>
      <trkpt lat="47.19039" lon="3.75849">
        <ele>315.5234375</ele>
        <time>2012-04-14T14:01:16Z</time>
      </trkpt>
      <trkpt lat="47.19048" lon="3.75862">
        <ele>316.3125</ele>
        <time>2012-04-14T14:01:26Z</time>
      </trkpt>
      <trkpt lat="47.19051" lon="3.75867">
        <ele>316.50390625</ele>
        <time>2012-04-14T14:01:29Z</time>
      </trkpt>
      <trkpt lat="47.19068" lon="3.7589">
        <ele>317.94140625</ele>
        <time>2012-04-14T14:01:42Z</time>
      </trkpt>
      <trkpt lat="47.19072" lon="3.75894">
        <ele>318.0390625</ele>
        <time>2012-04-14T14:01:46Z</time>
      </trkpt>
      <trkpt lat="47.19077" lon="3.75899">
        <ele>318.1796875</ele>
        <time>2012-04-14T14:01:52Z</time>
      </trkpt>
      <trkpt lat="47.19084" lon="3.759">
        <ele>318.34375</ele>
        <time>2012-04-14T14:01:58Z</time>
      </trkpt>
      <trkpt lat="47.19095" lon="3.75909">
        <ele>318.875</ele>
        <time>2012-04-14T14:02:07Z</time>
      </trkpt>
      <trkpt lat="47.19102" lon="3.75915">
        <ele>318.69140625</ele>
        <time>2012-04-14T14:02:14Z</time>
      </trkpt>
      <trkpt lat="47.19107" lon="3.75917">
        <ele>318.56640625</ele>
        <time>2012-04-14T14:02:17Z</time>
      </trkpt>
      <trkpt lat="47.19118" lon="3.75922">
        <ele>318.45703125</ele>
        <time>2012-04-14T14:02:26Z</time>
      </trkpt>
      <trkpt lat="47.19135" lon="3.7593">
        <ele>318.015625</ele>
        <time>2012-04-14T14:02:39Z</time>
      </trkpt>
      <trkpt lat="47.19137" lon="3.75934">
        <ele>317.984375</ele>
        <time>2012-04-14T14:02:42Z</time>
      </trkpt>
      <trkpt lat="47.19144" lon="3.75938">
        <ele>317.57421875</ele>
        <time>2012-04-14T14:02:48Z</time>
      </trkpt>
      <trkpt lat="47.19158" lon="3.75953">
        <ele>316.15234375</ele>
        <time>2012-04-14T14:03:01Z</time>
      </trkpt>
      <trkpt lat="47.19166" lon="3.75965">
        <ele>315.53515625</ele>
        <time>2012-04-14T14:03:12Z</time>
      </trkpt>
      <trkpt lat="47.19169" lon="3.75968">
        <ele>315.25</ele>
        <time>2012-04-14T14:03:16Z</time>
      </trkpt>
      <trkpt lat="47.19173" lon="3.75974">
        <ele>314.86328125</ele>
        <time>2012-04-14T14:03:21Z</time>
      </trkpt>
      <trkpt lat="47.19181" lon="3.75985">
        <ele>314.25</ele>
        <time>2012-04-14T14:03:30Z</time>
      </trkpt>
      <trkpt lat="47.19184" lon="3.75992">
        <ele>313.890625</ele>
        <time>2012-04-14T14:03:34Z</time>
      </trkpt>
      <trkpt lat="47.19192" lon="3.76003">
        <ele>313.375</ele>
        <time>2012-04-14T14:03:45Z</time>
      </trkpt>
      <trkpt lat="47.19193" lon="3.76005">
        <ele>313.3203125</ele>
        <time>2012-04-14T14:03:46Z</time>
      </trkpt>
      <trkpt lat="47.19197" lon="3.7601">
        <ele>313.15234375</ele>
        <time>2012-04-14T14:03:52Z</time>
      </trkpt>
      <trkpt lat="47.192" lon="3.76014">
        <ele>313.06640625</ele>
        <time>2012-04-14T14:03:56Z</time>
      </trkpt>
      <trkpt lat="47.19208" lon="3.76024">
        <ele>312.90234375</ele>
        <time>2012-04-14T14:04:07Z</time>
      </trkpt>
      <trkpt lat="47.19216" lon="3.76032">
        <ele>312.69921875</ele>
        <time>2012-04-14T14:04:18Z</time>
      </trkpt>
      <trkpt lat="47.19223" lon="3.76036">
        <ele>312.7578125</ele>
        <time>2012-04-14T14:04:30Z</time>
      </trkpt>
      <trkpt lat="47.1923" lon="3.7604">
        <ele>312.85546875</ele>
        <time>2012-04-14T14:04:40Z</time>
      </trkpt>
      <trkpt lat="47.19241" lon="3.76045">
        <ele>313.15625</ele>
        <time>2012-04-14T14:04:52Z</time>
      </trkpt>
      <trkpt lat="47.19243" lon="3.76047">
        <ele>313.24609375</ele>
        <time>2012-04-14T14:04:55Z</time>
      </trkpt>
      <trkpt lat="47.19256" lon="3.76061">
        <ele>314.0625</ele>
        <time>2012-04-14T14:05:08Z</time>
      </trkpt>
      <trkpt lat="47.19262" lon="3.76068">
        <ele>314.62890625</ele>
        <time>2012-04-14T14:05:16Z</time>
      </trkpt>
      <trkpt lat="47.19275" lon="3.76078">
        <ele>315.4140625</ele>
        <time>2012-04-14T14:05:28Z</time>
      </trkpt>
      <trkpt lat="47.19284" lon="3.76091">
        <ele>315.75</ele>
        <time>2012-04-14T14:05:39Z</time>
      </trkpt>
      <trkpt lat="47.1929" lon="3.76101">
        <ele>315.97265625</ele>
        <time>2012-04-14T14:05:48Z</time>
      </trkpt>
      <trkpt lat="47.19295" lon="3.76108">
        <ele>316.1484375</ele>
        <time>2012-04-14T14:05:55Z</time>
      </trkpt>
      <trkpt lat="47.19299" lon="3.76112">
        <ele>316.28125</ele>
        <time>2012-04-14T14:05:59Z</time>
      </trkpt>
      <trkpt lat="47.19307" lon="3.76121">
        <ele>316.55078125</ele>
        <time>2012-04-14T14:06:05Z</time>
      </trkpt>
      <trkpt lat="47.19319" lon="3.76134">
        <ele>317.0703125</ele>
        <time>2012-04-14T14:06:17Z</time>
      </trkpt>
      <trkpt lat="47.19324" lon="3.76139">
        <ele>317.42578125</ele>
        <time>2012-04-14T14:06:24Z</time>
      </trkpt>
      <trkpt lat="47.19336" lon="3.7615">
        <ele>318.28125</ele>
        <time>2012-04-14T14:06:36Z</time>
      </trkpt>
      <trkpt lat="47.19344" lon="3.76155">
        <ele>318.73046875</ele>
        <time>2012-04-14T14:06:42Z</time>
      </trkpt>
      <trkpt lat="47.19347" lon="3.76158">
        <ele>318.9453125</ele>
        <time>2012-04-14T14:06:46Z</time>
      </trkpt>
      <trkpt lat="47.19365" lon="3.76165">
        <ele>319.83984375</ele>
        <time>2012-04-14T14:07:01Z</time>
      </trkpt>
      <trkpt lat="47.19373" lon="3.76169">
        <ele>320.296875</ele>
        <time>2012-04-14T14:07:10Z</time>
      </trkpt>
      <trkpt lat="47.19378" lon="3.76171">
        <ele>320.51953125</ele>
        <time>2012-04-14T14:07:21Z</time>
      </trkpt>
      <trkpt lat="47.19378" lon="3.76171">
        <ele>320.55859375</ele>
        <time>2012-04-14T14:07:25Z</time>
      </trkpt>
      <trkpt lat="47.19382" lon="3.76176">
        <ele>320.84375</ele>
        <time>2012-04-14T14:07:29Z</time>
      </trkpt>
      <trkpt lat="47.194" lon="3.76188">
        <ele>321.9375</ele>
        <time>2012-04-14T14:07:44Z</time>
      </trkpt>
      <trkpt lat="47.19412" lon="3.76199">
        <ele>322.98046875</ele>
        <time>2012-04-14T14:07:56Z</time>
      </trkpt>
      <trkpt lat="47.19418" lon="3.76203">
        <ele>323.390625</ele>
        <time>2012-04-14T14:08:02Z</time>
      </trkpt>
      <trkpt lat="47.19421" lon="3.76205">
        <ele>323.55078125</ele>
        <time>2012-04-14T14:08:05Z</time>
      </trkpt>
      <trkpt lat="47.19428" lon="3.76208">
        <ele>323.91015625</ele>
        <time>2012-04-14T14:08:10Z</time>
      </trkpt>
      <trkpt lat="47.19444" lon="3.76213">
        <ele>324.96484375</ele>
        <time>2012-04-14T14:08:21Z</time>
      </trkpt>
      <trkpt lat="47.19464" lon="3.7622">
        <ele>326.78125</ele>
        <time>2012-04-14T14:08:38Z</time>
      </trkpt>
      <trkpt lat="47.19465" lon="3.76221">
        <ele>326.94921875</ele>
        <time>2012-04-14T14:08:39Z</time>
      </trkpt>
      <trkpt lat="47.19483" lon="3.76231">
        <ele>328.80078125</ele>
        <time>2012-04-14T14:08:52Z</time>
      </trkpt>
      <trkpt lat="47.1949" lon="3.76237">
        <ele>329.3515625</ele>
        <time>2012-04-14T14:09:06Z</time>
      </trkpt>
      <trkpt lat="47.19491" lon="3.76238">
        <ele>329.3984375</ele>
        <time>2012-04-14T14:09:28Z</time>
      </trkpt>
      <trkpt lat="47.19493" lon="3.76239">
        <ele>329.54296875</ele>
        <time>2012-04-14T14:09:53Z</time>
      </trkpt>
      <trkpt lat="47.19498" lon="3.76242">
        <ele>329.87890625</ele>
        <time>2012-04-14T14:09:58Z</time>
      </trkpt>
      <trkpt lat="47.195" lon="3.76243">
        <ele>330.0546875</ele>
        <time>2012-04-14T14:10:00Z</time>
      </trkpt>
      <trkpt lat="47.19508" lon="3.76243">
        <ele>330.58984375</ele>
        <time>2012-04-14T14:10:06Z</time>
      </trkpt>
      <trkpt lat="47.19526" lon="3.76248">
        <ele>332.10546875</ele>
        <time>2012-04-14T14:10:19Z</time>
      </trkpt>
      <trkpt lat="47.19543" lon="3.76256">
        <ele>333.60546875</ele>
        <time>2012-04-14T14:10:33Z</time>
      </trkpt>
      <trkpt lat="47.19546" lon="3.76257">
        <ele>333.96484375</ele>
        <time>2012-04-14T14:10:35Z</time>
      </trkpt>
      <trkpt lat="47.19549" lon="3.76259">
        <ele>334.28125</ele>
        <time>2012-04-14T14:10:38Z</time>
      </trkpt>
      <trkpt lat="47.19563" lon="3.76265">
        <ele>335.54296875</ele>
        <time>2012-04-14T14:10:49Z</time>
      </trkpt>
      <trkpt lat="47.19567" lon="3.76267">
        <ele>335.828125</ele>
        <time>2012-04-14T14:10:52Z</time>
      </trkpt>
      <trkpt lat="47.19585" lon="3.7627">
        <ele>337.6953125</ele>
        <time>2012-04-14T14:11:04Z</time>
      </trkpt>
      <trkpt lat="47.19594" lon="3.76272">
        <ele>338.76171875</ele>
        <time>2012-04-14T14:11:12Z</time>
      </trkpt>
      <trkpt lat="47.19598" lon="3.76274">
        <ele>339.08984375</ele>
        <time>2012-04-14T14:11:14Z</time>
      </trkpt>
      <trkpt lat="47.19601" lon="3.76276">
        <ele>339.33203125</ele>
        <time>2012-04-14T14:11:17Z</time>
      </trkpt>
      <trkpt lat="47.19614" lon="3.76286">
        <ele>340.578125</ele>
        <time>2012-04-14T14:11:28Z</time>
      </trkpt>
      <trkpt lat="47.19633" lon="3.76297">
        <ele>342.265625</ele>
        <time>2012-04-14T14:11:43Z</time>
      </trkpt>
      <trkpt lat="47.1964" lon="3.763">
        <ele>342.59375</ele>
        <time>2012-04-14T14:11:50Z</time>
      </trkpt>
      <trkpt lat="47.19643" lon="3.76301">
        <ele>342.7109375</ele>
        <time>2012-04-14T14:11:52Z</time>
      </trkpt>
      <trkpt lat="47.19657" lon="3.7631">
        <ele>343.73828125</ele>
        <time>2012-04-14T14:12:04Z</time>
      </trkpt>
      <trkpt lat="47.19668" lon="3.76314">
        <ele>344.70703125</ele>
        <time>2012-04-14T14:12:15Z</time>
      </trkpt>
      <trkpt lat="47.19684" lon="3.76321">
        <ele>346.22265625</ele>
        <time>2012-04-14T14:12:28Z</time>
      </trkpt>
      <trkpt lat="47.19685" lon="3.76322">
        <ele>346.3984375</ele>
        <time>2012-04-14T14:12:29Z</time>
      </trkpt>
      <trkpt lat="47.19693" lon="3.76325">
        <ele>347.37890625</ele>
        <time>2012-04-14T14:12:38Z</time>
      </trkpt>
      <trkpt lat="47.19704" lon="3.76329">
        <ele>348.66796875</ele>
        <time>2012-04-14T14:12:47Z</time>
      </trkpt>
      <trkpt lat="47.19711" lon="3.7633">
        <ele>349.25</ele>
        <time>2012-04-14T14:12:52Z</time>
      </trkpt>
      <trkpt lat="47.19728" lon="3.76338">
        <ele>350.4609375</ele>
        <time>2012-04-14T14:13:06Z</time>
      </trkpt>
      <trkpt lat="47.19739" lon="3.76343">
        <ele>351.33203125</ele>
        <time>2012-04-14T14:13:14Z</time>
      </trkpt>
      <trkpt lat="47.19751" lon="3.76351">
        <ele>352.62109375</ele>
        <time>2012-04-14T14:13:25Z</time>
      </trkpt>
      <trkpt lat="47.19766" lon="3.76357">
        <ele>354.171875</ele>
        <time>2012-04-14T14:13:38Z</time>
      </trkpt>
      <trkpt lat="47.19771" lon="3.76357">
        <ele>354.36328125</ele>
        <time>2012-04-14T14:13:42Z</time>
      </trkpt>
      <trkpt lat="47.19777" lon="3.76362">
        <ele>354.65234375</ele>
        <time>2012-04-14T14:13:47Z</time>
      </trkpt>
      <trkpt lat="47.19793" lon="3.7637">
        <ele>355.078125</ele>
        <time>2012-04-14T14:14:02Z</time>
      </trkpt>
      <trkpt lat="47.19807" lon="3.76376">
        <ele>355.578125</ele>
        <time>2012-04-14T14:14:13Z</time>
      </trkpt>
      <trkpt lat="47.19811" lon="3.76376">
        <ele>355.70703125</ele>
        <time>2012-04-14T14:14:15Z</time>
      </trkpt>
      <trkpt lat="47.19836" lon="3.76386">
        <ele>356.6328125</ele>
        <time>2012-04-14T14:14:32Z</time>
      </trkpt>
      <trkpt lat="47.19855" lon="3.764">
        <ele>357</ele>
        <time>2012-04-14T14:14:50Z</time>
      </trkpt>
      <trkpt lat="47.19876" lon="3.76413">
        <ele>357.07421875</ele>
        <time>2012-04-14T14:15:07Z</time>
      </trkpt>
      <trkpt lat="47.19894" lon="3.7642">
        <ele>357.44921875</ele>
        <time>2012-04-14T14:15:20Z</time>
      </trkpt>
      <trkpt lat="47.19913" lon="3.76424">
        <ele>357.08203125</ele>
        <time>2012-04-14T14:15:35Z</time>
      </trkpt>
      <trkpt lat="47.19926" lon="3.76428">
        <ele>356.4453125</ele>
        <time>2012-04-14T14:15:46Z</time>
      </trkpt>
      <trkpt lat="47.19947" lon="3.76436">
        <ele>356.015625</ele>
        <time>2012-04-14T14:16:01Z</time>
      </trkpt>
      <trkpt lat="47.19957" lon="3.76441">
        <ele>355.75</ele>
        <time>2012-04-14T14:16:09Z</time>
      </trkpt>
      <trkpt lat="47.19967" lon="3.76447">
        <ele>354.8671875</ele>
        <time>2012-04-14T14:16:15Z</time>
      </trkpt>
      <trkpt lat="47.19987" lon="3.76459">
        <ele>353.90234375</ele>
        <time>2012-04-14T14:16:31Z</time>
      </trkpt>
      <trkpt lat="47.2" lon="3.76473">
        <ele>352.796875</ele>
        <time>2012-04-14T14:16:41Z</time>
      </trkpt>
      <trkpt lat="47.20003" lon="3.76476">
        <ele>352.58203125</ele>
        <time>2012-04-14T14:16:44Z</time>
      </trkpt>
      <trkpt lat="47.20017" lon="3.76494">
        <ele>351.8515625</ele>
        <time>2012-04-14T14:16:56Z</time>
      </trkpt>
      <trkpt lat="47.20018" lon="3.76495">
        <ele>351.80859375</ele>
        <time>2012-04-14T14:16:57Z</time>
      </trkpt>
      <trkpt lat="47.20027" lon="3.76507">
        <ele>351.48828125</ele>
        <time>2012-04-14T14:17:08Z</time>
      </trkpt>
      <trkpt lat="47.20031" lon="3.76514">
        <ele>351.34375</ele>
        <time>2012-04-14T14:17:13Z</time>
      </trkpt>
      <trkpt lat="47.20039" lon="3.76521">
        <ele>351.05859375</ele>
        <time>2012-04-14T14:17:18Z</time>
      </trkpt>
      <trkpt lat="47.20046" lon="3.76531">
        <ele>350.11328125</ele>
        <time>2012-04-14T14:17:26Z</time>
      </trkpt>
      <trkpt lat="47.20056" lon="3.76541">
        <ele>348.984375</ele>
        <time>2012-04-14T14:17:33Z</time>
      </trkpt>
      <trkpt lat="47.20061" lon="3.76547">
        <ele>348.5546875</ele>
        <time>2012-04-14T14:17:37Z</time>
      </trkpt>
      <trkpt lat="47.20065" lon="3.7655">
        <ele>348.2265625</ele>
        <time>2012-04-14T14:17:41Z</time>
      </trkpt>
      <trkpt lat="47.20082" lon="3.76563">
        <ele>346.7578125</ele>
        <time>2012-04-14T14:17:57Z</time>
      </trkpt>
      <trkpt lat="47.20089" lon="3.76566">
        <ele>346.33984375</ele>
        <time>2012-04-14T14:18:04Z</time>
      </trkpt>
      <trkpt lat="47.20097" lon="3.76566">
        <ele>346</ele>
        <time>2012-04-14T14:18:10Z</time>
      </trkpt>
      <trkpt lat="47.20117" lon="3.76567">
        <ele>346</ele>
        <time>2012-04-14T14:18:26Z</time>
      </trkpt>
      <trkpt lat="47.20121" lon="3.76567">
        <ele>346</ele>
        <time>2012-04-14T14:18:29Z</time>
      </trkpt>
      <trkpt lat="47.20135" lon="3.76567">
        <ele>346.28125</ele>
        <time>2012-04-14T14:18:39Z</time>
      </trkpt>
      <trkpt lat="47.20141" lon="3.76568">
        <ele>346.44921875</ele>
        <time>2012-04-14T14:18:43Z</time>
      </trkpt>
      <trkpt lat="47.20155" lon="3.76576">
        <ele>347.10546875</ele>
        <time>2012-04-14T14:18:54Z</time>
      </trkpt>
      <trkpt lat="47.20168" lon="3.76597">
        <ele>348.328125</ele>
        <time>2012-04-14T14:19:09Z</time>
      </trkpt>
      <trkpt lat="47.20168" lon="3.76599">
        <ele>348.41015625</ele>
        <time>2012-04-14T14:19:10Z</time>
      </trkpt>
      <trkpt lat="47.20175" lon="3.76609">
        <ele>348.97265625</ele>
        <time>2012-04-14T14:19:17Z</time>
      </trkpt>
      <trkpt lat="47.2018" lon="3.76612">
        <ele>349.31640625</ele>
        <time>2012-04-14T14:19:20Z</time>
      </trkpt>
      <trkpt lat="47.20188" lon="3.76616">
        <ele>349.7578125</ele>
        <time>2012-04-14T14:19:28Z</time>
      </trkpt>
      <trkpt lat="47.20201" lon="3.76627">
        <ele>350.60546875</ele>
        <time>2012-04-14T14:19:42Z</time>
      </trkpt>
      <trkpt lat="47.20204" lon="3.76631">
        <ele>350.8671875</ele>
        <time>2012-04-14T14:19:46Z</time>
      </trkpt>
      <trkpt lat="47.20207" lon="3.76633">
        <ele>350.984375</ele>
        <time>2012-04-14T14:19:48Z</time>
      </trkpt>
      <trkpt lat="47.20224" lon="3.76652">
        <ele>351.42578125</ele>
        <time>2012-04-14T14:20:02Z</time>
      </trkpt>
      <trkpt lat="47.20227" lon="3.76654">
        <ele>351.55859375</ele>
        <time>2012-04-14T14:20:04Z</time>
      </trkpt>
      <trkpt lat="47.20239" lon="3.76661">
        <ele>352.0703125</ele>
        <time>2012-04-14T14:20:13Z</time>
      </trkpt>
      <trkpt lat="47.20253" lon="3.76669">
        <ele>352.359375</ele>
        <time>2012-04-14T14:20:24Z</time>
      </trkpt>
      <trkpt lat="47.20268" lon="3.76687">
        <ele>353</ele>
        <time>2012-04-14T14:20:39Z</time>
      </trkpt>
      <trkpt lat="47.20275" lon="3.76699">
        <ele>353.4140625</ele>
        <time>2012-04-14T14:20:48Z</time>
      </trkpt>
      <trkpt lat="47.20284" lon="3.76716">
        <ele>354</ele>
        <time>2012-04-14T14:21:01Z</time>
      </trkpt>
      <trkpt lat="47.20287" lon="3.7672">
        <ele>354</ele>
        <time>2012-04-14T14:21:04Z</time>
      </trkpt>
      <trkpt lat="47.20302" lon="3.76733">
        <ele>354</ele>
        <time>2012-04-14T14:21:18Z</time>
      </trkpt>
      <trkpt lat="47.20309" lon="3.76735">
        <ele>354</ele>
        <time>2012-04-14T14:21:24Z</time>
      </trkpt>
      <trkpt lat="47.20329" lon="3.7674">
        <ele>353.96875</ele>
        <time>2012-04-14T14:21:40Z</time>
      </trkpt>
      <trkpt lat="47.20331" lon="3.76741">
        <ele>353.96484375</ele>
        <time>2012-04-14T14:21:42Z</time>
      </trkpt>
      <trkpt lat="47.20358" lon="3.76759">
        <ele>353.82421875</ele>
        <time>2012-04-14T14:21:58Z</time>
      </trkpt>
      <trkpt lat="47.20369" lon="3.76766">
        <ele>353.87109375</ele>
        <time>2012-04-14T14:22:08Z</time>
      </trkpt>
      <trkpt lat="47.20374" lon="3.76767">
        <ele>353.86328125</ele>
        <time>2012-04-14T14:22:12Z</time>
      </trkpt>
      <trkpt lat="47.20389" lon="3.76771">
        <ele>354.01953125</ele>
        <time>2012-04-14T14:22:24Z</time>
      </trkpt>
      <trkpt lat="47.20408" lon="3.76774">
        <ele>354.140625</ele>
        <time>2012-04-14T14:22:38Z</time>
      </trkpt>
      <trkpt lat="47.20415" lon="3.76776">
        <ele>354.20703125</ele>
        <time>2012-04-14T14:22:44Z</time>
      </trkpt>
      <trkpt lat="47.20436" lon="3.76778">
        <ele>354.515625</ele>
        <time>2012-04-14T14:22:59Z</time>
      </trkpt>
      <trkpt lat="47.20445" lon="3.76778">
        <ele>354.859375</ele>
        <time>2012-04-14T14:23:06Z</time>
      </trkpt>
      <trkpt lat="47.20451" lon="3.76777">
        <ele>355.02734375</ele>
        <time>2012-04-14T14:23:10Z</time>
      </trkpt>
      <trkpt lat="47.2047" lon="3.7678">
        <ele>355.96875</ele>
        <time>2012-04-14T14:23:24Z</time>
      </trkpt>
      <trkpt lat="47.20482" lon="3.76778">
        <ele>356.42578125</ele>
        <time>2012-04-14T14:23:33Z</time>
      </trkpt>
      <trkpt lat="47.20484" lon="3.76779">
        <ele>356.609375</ele>
        <time>2012-04-14T14:23:37Z</time>
      </trkpt>
      <trkpt lat="47.20486" lon="3.76791">
        <ele>357.515625</ele>
        <time>2012-04-14T14:23:45Z</time>
      </trkpt>
      <trkpt lat="47.20485" lon="3.76796">
        <ele>357.83984375</ele>
        <time>2012-04-14T14:23:49Z</time>
      </trkpt>
      <trkpt lat="47.20482" lon="3.76803">
        <ele>357.9296875</ele>
        <time>2012-04-14T14:23:53Z</time>
      </trkpt>
      <trkpt lat="47.20471" lon="3.76824">
        <ele>357.95703125</ele>
        <time>2012-04-14T14:24:09Z</time>
      </trkpt>
      <trkpt lat="47.20463" lon="3.76843">
        <ele>357.5234375</ele>
        <time>2012-04-14T14:24:22Z</time>
      </trkpt>
      <trkpt lat="47.20458" lon="3.76856">
        <ele>357.09375</ele>
        <time>2012-04-14T14:24:30Z</time>
      </trkpt>
      <trkpt lat="47.20455" lon="3.76863">
        <ele>356.9140625</ele>
        <time>2012-04-14T14:24:34Z</time>
      </trkpt>
      <trkpt lat="47.20449" lon="3.7689">
        <ele>356.10546875</ele>
        <time>2012-04-14T14:24:48Z</time>
      </trkpt>
      <trkpt lat="47.20448" lon="3.76893">
        <ele>355.89453125</ele>
        <time>2012-04-14T14:24:50Z</time>
      </trkpt>
      <trkpt lat="47.20444" lon="3.76912">
        <ele>354.98828125</ele>
        <time>2012-04-14T14:25:00Z</time>
      </trkpt>
      <trkpt lat="47.20445" lon="3.76924">
        <ele>354.64453125</ele>
        <time>2012-04-14T14:25:06Z</time>
      </trkpt>
      <trkpt lat="47.20443" lon="3.7696">
        <ele>353.18359375</ele>
        <time>2012-04-14T14:25:23Z</time>
      </trkpt>
      <trkpt lat="47.20444" lon="3.76966">
        <ele>353.0234375</ele>
        <time>2012-04-14T14:25:26Z</time>
      </trkpt>
      <trkpt lat="47.20441" lon="3.76977">
        <ele>352.453125</ele>
        <time>2012-04-14T14:25:32Z</time>
      </trkpt>
      <trkpt lat="47.20438" lon="3.76994">
        <ele>351.5703125</ele>
        <time>2012-04-14T14:25:42Z</time>
      </trkpt>
      <trkpt lat="47.20435" lon="3.77018">
        <ele>350.10546875</ele>
        <time>2012-04-14T14:25:53Z</time>
      </trkpt>
      <trkpt lat="47.20435" lon="3.77036">
        <ele>349.2890625</ele>
        <time>2012-04-14T14:26:00Z</time>
      </trkpt>
      <trkpt lat="47.20434" lon="3.77046">
        <ele>348.79296875</ele>
        <time>2012-04-14T14:26:06Z</time>
      </trkpt>
      <trkpt lat="47.20435" lon="3.77073">
        <ele>347.87109375</ele>
        <time>2012-04-14T14:26:18Z</time>
      </trkpt>
      <trkpt lat="47.20435" lon="3.77075">
        <ele>347.79296875</ele>
        <time>2012-04-14T14:26:19Z</time>
      </trkpt>
      <trkpt lat="47.20433" lon="3.77092">
        <ele>346.92578125</ele>
        <time>2012-04-14T14:26:27Z</time>
      </trkpt>
      <trkpt lat="47.20432" lon="3.77096">
        <ele>346.71484375</ele>
        <time>2012-04-14T14:26:29Z</time>
      </trkpt>
      <trkpt lat="47.20424" lon="3.77126">
        <ele>344.46875</ele>
        <time>2012-04-14T14:26:44Z</time>
      </trkpt>
      <trkpt lat="47.20423" lon="3.77132">
        <ele>344.02734375</ele>
        <time>2012-04-14T14:26:47Z</time>
      </trkpt>
      <trkpt lat="47.20412" lon="3.77153">
        <ele>341.41796875</ele>
        <time>2012-04-14T14:27:01Z</time>
      </trkpt>
      <trkpt lat="47.20409" lon="3.77161">
        <ele>340.76953125</ele>
        <time>2012-04-14T14:27:05Z</time>
      </trkpt>
      <trkpt lat="47.20409" lon="3.77164">
        <ele>340.5546875</ele>
        <time>2012-04-14T14:27:07Z</time>
      </trkpt>
      <trkpt lat="47.204" lon="3.77182">
        <ele>339.0703125</ele>
        <time>2012-04-14T14:27:18Z</time>
      </trkpt>
      <trkpt lat="47.20392" lon="3.77212">
        <ele>337.02734375</ele>
        <time>2012-04-14T14:27:35Z</time>
      </trkpt>
      <trkpt lat="47.20375" lon="3.77233">
        <ele>335.109375</ele>
        <time>2012-04-14T14:27:50Z</time>
      </trkpt>
      <trkpt lat="47.20358" lon="3.77246">
        <ele>334.29296875</ele>
        <time>2012-04-14T14:28:05Z</time>
      </trkpt>
      <trkpt lat="47.20339" lon="3.7725">
        <ele>333.7421875</ele>
        <time>2012-04-14T14:28:18Z</time>
      </trkpt>
      <trkpt lat="47.20332" lon="3.7725">
        <ele>333.71484375</ele>
        <time>2012-04-14T14:28:24Z</time>
      </trkpt>
      <trkpt lat="47.20326" lon="3.77251">
        <ele>333.6796875</ele>
        <time>2012-04-14T14:28:28Z</time>
      </trkpt>
      <trkpt lat="47.20302" lon="3.77251">
        <ele>333.6796875</ele>
        <time>2012-04-14T14:28:46Z</time>
      </trkpt>
      <trkpt lat="47.20282" lon="3.77245">
        <ele>333.8984375</ele>
        <time>2012-04-14T14:29:01Z</time>
      </trkpt>
      <trkpt lat="47.20263" lon="3.7724">
        <ele>334.23046875</ele>
        <time>2012-04-14T14:29:14Z</time>
      </trkpt>
      <trkpt lat="47.20262" lon="3.77243">
        <ele>333.859375</ele>
        <time>2012-04-14T14:29:17Z</time>
      </trkpt>
      <trkpt lat="47.20256" lon="3.77268">
        <ele>331.91015625</ele>
        <time>2012-04-14T14:29:29Z</time>
      </trkpt>
      <trkpt lat="47.20255" lon="3.77272">
        <ele>331.6640625</ele>
        <time>2012-04-14T14:29:31Z</time>
      </trkpt>
      <trkpt lat="47.2025" lon="3.77291">
        <ele>330.80078125</ele>
        <time>2012-04-14T14:29:42Z</time>
      </trkpt>
      <trkpt lat="47.20252" lon="3.77298">
        <ele>330.5703125</ele>
        <time>2012-04-14T14:29:45Z</time>
      </trkpt>
      <trkpt lat="47.20253" lon="3.77306">
        <ele>330.171875</ele>
        <time>2012-04-14T14:29:48Z</time>
      </trkpt>
      <trkpt lat="47.20252" lon="3.77314">
        <ele>329.6875</ele>
        <time>2012-04-14T14:29:55Z</time>
      </trkpt>
      <trkpt lat="47.20249" lon="3.77315">
        <ele>329.54296875</ele>
        <time>2012-04-14T14:29:58Z</time>
      </trkpt>
      <trkpt lat="47.20236" lon="3.77314">
        <ele>329.42578125</ele>
        <time>2012-04-14T14:30:11Z</time>
      </trkpt>
      <trkpt lat="47.20225" lon="3.77317">
        <ele>329.9296875</ele>
        <time>2012-04-14T14:30:22Z</time>
      </trkpt>
      <trkpt lat="47.20223" lon="3.77318">
        <ele>330.04296875</ele>
        <time>2012-04-14T14:30:45Z</time>
      </trkpt>
      <trkpt lat="47.20221" lon="3.77321">
        <ele>330.125</ele>
        <time>2012-04-14T14:31:16Z</time>
      </trkpt>
      <trkpt lat="47.20218" lon="3.77322">
        <ele>330.28125</ele>
        <time>2012-04-14T14:31:25Z</time>
      </trkpt>
      <trkpt lat="47.20202" lon="3.77323">
        <ele>331.5703125</ele>
        <time>2012-04-14T14:31:40Z</time>
      </trkpt>
      <trkpt lat="47.20186" lon="3.77332">
        <ele>333.73046875</ele>
        <time>2012-04-14T14:31:52Z</time>
      </trkpt>
      <trkpt lat="47.20177" lon="3.77337">
        <ele>335.3515625</ele>
        <time>2012-04-14T14:32:04Z</time>
      </trkpt>
      <trkpt lat="47.20174" lon="3.77338">
        <ele>336.05078125</ele>
        <time>2012-04-14T14:32:11Z</time>
      </trkpt>
      <trkpt lat="47.20171" lon="3.77338">
        <ele>336.546875</ele>
        <time>2012-04-14T14:32:13Z</time>
      </trkpt>
      <trkpt lat="47.20166" lon="3.77339">
        <ele>337.62890625</ele>
        <time>2012-04-14T14:32:17Z</time>
      </trkpt>
      <trkpt lat="47.20154" lon="3.7734">
        <ele>340.19140625</ele>
        <time>2012-04-14T14:32:25Z</time>
      </trkpt>
      <trkpt lat="47.20124" lon="3.77342">
        <ele>346.23828125</ele>
        <time>2012-04-14T14:32:39Z</time>
      </trkpt>
      <trkpt lat="47.2011" lon="3.77346">
        <ele>349.05859375</ele>
        <time>2012-04-14T14:32:50Z</time>
      </trkpt>
      <trkpt lat="47.20096" lon="3.77348">
        <ele>351.63671875</ele>
        <time>2012-04-14T14:33:03Z</time>
      </trkpt>
      <trkpt lat="47.20099" lon="3.77351">
        <ele>351.26953125</ele>
        <time>2012-04-14T14:33:26Z</time>
      </trkpt>
      <trkpt lat="47.20092" lon="3.77354">
        <ele>352.5</ele>
        <time>2012-04-14T14:33:46Z</time>
      </trkpt>
      <trkpt lat="47.20087" lon="3.77358">
        <ele>353.078125</ele>
        <time>2012-04-14T14:33:49Z</time>
      </trkpt>
      <trkpt lat="47.20079" lon="3.77365">
        <ele>354.1875</ele>
        <time>2012-04-14T14:33:56Z</time>
      </trkpt>
      <trkpt lat="47.20067" lon="3.77371">
        <ele>355.71875</ele>
        <time>2012-04-14T14:34:05Z</time>
      </trkpt>
      <trkpt lat="47.20046" lon="3.77384">
        <ele>357.71875</ele>
        <time>2012-04-14T14:34:21Z</time>
      </trkpt>
      <trkpt lat="47.20045" lon="3.77385">
        <ele>357.80859375</ele>
        <time>2012-04-14T14:34:22Z</time>
      </trkpt>
      <trkpt lat="47.20032" lon="3.77387">
        <ele>358.21484375</ele>
        <time>2012-04-14T14:34:35Z</time>
      </trkpt>
      <trkpt lat="47.20031" lon="3.77389">
        <ele>358.2734375</ele>
        <time>2012-04-14T14:34:37Z</time>
      </trkpt>
      <trkpt lat="47.20012" lon="3.77401">
        <ele>358.7109375</ele>
        <time>2012-04-14T14:34:51Z</time>
      </trkpt>
      <trkpt lat="47.19999" lon="3.77415">
        <ele>359.3046875</ele>
        <time>2012-04-14T14:35:03Z</time>
      </trkpt>
      <trkpt lat="47.1999" lon="3.77426">
        <ele>359.73046875</ele>
        <time>2012-04-14T14:35:13Z</time>
      </trkpt>
      <trkpt lat="47.19979" lon="3.77441">
        <ele>359.81640625</ele>
        <time>2012-04-14T14:35:25Z</time>
      </trkpt>
      <trkpt lat="47.19979" lon="3.77443">
        <ele>359.9296875</ele>
        <time>2012-04-14T14:35:27Z</time>
      </trkpt>
      <trkpt lat="47.19975" lon="3.77451">
        <ele>360.10546875</ele>
        <time>2012-04-14T14:35:32Z</time>
      </trkpt>
      <trkpt lat="47.19972" lon="3.77459">
        <ele>360.2578125</ele>
        <time>2012-04-14T14:35:36Z</time>
      </trkpt>
      <trkpt lat="47.1996" lon="3.77481">
        <ele>360.41796875</ele>
        <time>2012-04-14T14:35:50Z</time>
      </trkpt>
      <trkpt lat="47.19959" lon="3.77482">
        <ele>360.43359375</ele>
        <time>2012-04-14T14:35:51Z</time>
      </trkpt>
      <trkpt lat="47.19952" lon="3.77492">
        <ele>360.36328125</ele>
        <time>2012-04-14T14:35:59Z</time>
      </trkpt>
      <trkpt lat="47.19939" lon="3.77514">
        <ele>360.3125</ele>
        <time>2012-04-14T14:36:11Z</time>
      </trkpt>
      <trkpt lat="47.19927" lon="3.77536">
        <ele>360.40625</ele>
        <time>2012-04-14T14:36:25Z</time>
      </trkpt>
      <trkpt lat="47.19925" lon="3.77543">
        <ele>360.515625</ele>
        <time>2012-04-14T14:36:29Z</time>
      </trkpt>
      <trkpt lat="47.1992" lon="3.77556">
        <ele>360.640625</ele>
        <time>2012-04-14T14:36:36Z</time>
      </trkpt>
      <trkpt lat="47.19914" lon="3.77564">
        <ele>360.47265625</ele>
        <time>2012-04-14T14:36:42Z</time>
      </trkpt>
      <trkpt lat="47.1991" lon="3.77571">
        <ele>360.4296875</ele>
        <time>2012-04-14T14:36:48Z</time>
      </trkpt>
      <trkpt lat="47.19898" lon="3.77592">
        <ele>359.67578125</ele>
        <time>2012-04-14T14:37:02Z</time>
      </trkpt>
      <trkpt lat="47.1989" lon="3.77598">
        <ele>359.0703125</ele>
        <time>2012-04-14T14:37:09Z</time>
      </trkpt>
      <trkpt lat="47.19885" lon="3.77605">
        <ele>358.76171875</ele>
        <time>2012-04-14T14:37:15Z</time>
      </trkpt>
      <trkpt lat="47.19878" lon="3.77617">
        <ele>358.3515625</ele>
        <time>2012-04-14T14:37:24Z</time>
      </trkpt>
      <trkpt lat="47.19873" lon="3.77625">
        <ele>357.83984375</ele>
        <time>2012-04-14T14:37:30Z</time>
      </trkpt>
      <trkpt lat="47.19863" lon="3.77636">
        <ele>357.0234375</ele>
        <time>2012-04-14T14:37:39Z</time>
      </trkpt>
      <trkpt lat="47.19862" lon="3.7764">
        <ele>357.01171875</ele>
        <time>2012-04-14T14:37:41Z</time>
      </trkpt>
      <trkpt lat="47.1985" lon="3.77658">
        <ele>356.359375</ele>
        <time>2012-04-14T14:37:53Z</time>
      </trkpt>
      <trkpt lat="47.19849" lon="3.77666">
        <ele>356.51953125</ele>
        <time>2012-04-14T14:37:58Z</time>
      </trkpt>
      <trkpt lat="47.19842" lon="3.77678">
        <ele>356.1875</ele>
        <time>2012-04-14T14:38:08Z</time>
      </trkpt>
      <trkpt lat="47.19839" lon="3.77684">
        <ele>356.12890625</ele>
        <time>2012-04-14T14:38:12Z</time>
      </trkpt>
      <trkpt lat="47.19834" lon="3.77689">
        <ele>355.78515625</ele>
        <time>2012-04-14T14:38:16Z</time>
      </trkpt>
      <trkpt lat="47.19829" lon="3.777">
        <ele>355.54296875</ele>
        <time>2012-04-14T14:38:23Z</time>
      </trkpt>
      <trkpt lat="47.19824" lon="3.77708">
        <ele>355.3828125</ele>
        <time>2012-04-14T14:38:28Z</time>
      </trkpt>
      <trkpt lat="47.19817" lon="3.77718">
        <ele>355.0234375</ele>
        <time>2012-04-14T14:38:34Z</time>
      </trkpt>
      <trkpt lat="47.19812" lon="3.77729">
        <ele>354.89453125</ele>
        <time>2012-04-14T14:38:40Z</time>
      </trkpt>
      <trkpt lat="47.19805" lon="3.77739">
        <ele>354.4453125</ele>
        <time>2012-04-14T14:38:47Z</time>
      </trkpt>
      <trkpt lat="47.19786" lon="3.77757">
        <ele>353.203125</ele>
        <time>2012-04-14T14:39:01Z</time>
      </trkpt>
      <trkpt lat="47.1977" lon="3.7777">
        <ele>352.51953125</ele>
        <time>2012-04-14T14:39:15Z</time>
      </trkpt>
      <trkpt lat="47.19758" lon="3.77793">
        <ele>351.46484375</ele>
        <time>2012-04-14T14:39:30Z</time>
      </trkpt>
      <trkpt lat="47.19746" lon="3.77815">
        <ele>350.72265625</ele>
        <time>2012-04-14T14:39:44Z</time>
      </trkpt>
      <trkpt lat="47.19732" lon="3.77835">
        <ele>350.46484375</ele>
        <time>2012-04-14T14:39:57Z</time>
      </trkpt>
      <trkpt lat="47.19729" lon="3.77848">
        <ele>351.03125</ele>
        <time>2012-04-14T14:40:04Z</time>
      </trkpt>
      <trkpt lat="47.19722" lon="3.77869">
        <ele>351.09375</ele>
        <time>2012-04-14T14:40:15Z</time>
      </trkpt>
      <trkpt lat="47.19717" lon="3.77881">
        <ele>351</ele>
        <time>2012-04-14T14:40:21Z</time>
      </trkpt>
      <trkpt lat="47.19712" lon="3.7789">
        <ele>350.796875</ele>
        <time>2012-04-14T14:40:28Z</time>
      </trkpt>
      <trkpt lat="47.19703" lon="3.77902">
        <ele>350.3515625</ele>
        <time>2012-04-14T14:40:37Z</time>
      </trkpt>
      <trkpt lat="47.197" lon="3.77914">
        <ele>350.19921875</ele>
        <time>2012-04-14T14:40:42Z</time>
      </trkpt>
      <trkpt lat="47.19695" lon="3.77926">
        <ele>349.6171875</ele>
        <time>2012-04-14T14:40:49Z</time>
      </trkpt>
      <trkpt lat="47.19692" lon="3.77955">
        <ele>350.0234375</ele>
        <time>2012-04-14T14:41:02Z</time>
      </trkpt>
      <trkpt lat="47.19693" lon="3.77963">
        <ele>350.3359375</ele>
        <time>2012-04-14T14:41:06Z</time>
      </trkpt>
      <trkpt lat="47.19688" lon="3.77983">
        <ele>349.87109375</ele>
        <time>2012-04-14T14:41:17Z</time>
      </trkpt>
      <trkpt lat="47.19683" lon="3.77992">
        <ele>349.390625</ele>
        <time>2012-04-14T14:41:23Z</time>
      </trkpt>
      <trkpt lat="47.19676" lon="3.78013">
        <ele>349.16015625</ele>
        <time>2012-04-14T14:41:35Z</time>
      </trkpt>
      <trkpt lat="47.19673" lon="3.7802">
        <ele>349.08203125</ele>
        <time>2012-04-14T14:41:39Z</time>
      </trkpt>
      <trkpt lat="47.19664" lon="3.78043">
        <ele>348.58984375</ele>
        <time>2012-04-14T14:41:53Z</time>
      </trkpt>
      <trkpt lat="47.1966" lon="3.78062">
        <ele>349.03515625</ele>
        <time>2012-04-14T14:42:01Z</time>
      </trkpt>
      <trkpt lat="47.19649" lon="3.78086">
        <ele>349.06640625</ele>
        <time>2012-04-14T14:42:15Z</time>
      </trkpt>
      <trkpt lat="47.19649" lon="3.78088">
        <ele>349.078125</ele>
        <time>2012-04-14T14:42:16Z</time>
      </trkpt>
      <trkpt lat="47.19635" lon="3.78105">
        <ele>348.18359375</ele>
        <time>2012-04-14T14:42:30Z</time>
      </trkpt>
      <trkpt lat="47.19624" lon="3.78122">
        <ele>347.68359375</ele>
        <time>2012-04-14T14:42:42Z</time>
      </trkpt>
      <trkpt lat="47.19622" lon="3.78127">
        <ele>347.6171875</ele>
        <time>2012-04-14T14:42:45Z</time>
      </trkpt>
      <trkpt lat="47.19619" lon="3.78133">
        <ele>347.5234375</ele>
        <time>2012-04-14T14:42:49Z</time>
      </trkpt>
      <trkpt lat="47.19607" lon="3.78156">
        <ele>347.05859375</ele>
        <time>2012-04-14T14:43:02Z</time>
      </trkpt>
      <trkpt lat="47.19603" lon="3.78166">
        <ele>346.9609375</ele>
        <time>2012-04-14T14:43:08Z</time>
      </trkpt>
      <trkpt lat="47.19591" lon="3.78187">
        <ele>346.39453125</ele>
        <time>2012-04-14T14:43:22Z</time>
      </trkpt>
      <trkpt lat="47.19578" lon="3.78205">
        <ele>346.16015625</ele>
        <time>2012-04-14T14:43:37Z</time>
      </trkpt>
      <trkpt lat="47.19574" lon="3.78215">
        <ele>346.37890625</ele>
        <time>2012-04-14T14:43:43Z</time>
      </trkpt>
      <trkpt lat="47.19562" lon="3.78235">
        <ele>346.44921875</ele>
        <time>2012-04-14T14:43:57Z</time>
      </trkpt>
      <trkpt lat="47.19558" lon="3.78241">
        <ele>346.578125</ele>
        <time>2012-04-14T14:44:01Z</time>
      </trkpt>
      <trkpt lat="47.19544" lon="3.78266">
        <ele>347.89453125</ele>
        <time>2012-04-14T14:44:16Z</time>
      </trkpt>
      <trkpt lat="47.19534" lon="3.78281">
        <ele>348.69921875</ele>
        <time>2012-04-14T14:44:27Z</time>
      </trkpt>
      <trkpt lat="47.19532" lon="3.7829">
        <ele>349.21484375</ele>
        <time>2012-04-14T14:44:32Z</time>
      </trkpt>
      <trkpt lat="47.19519" lon="3.78305">
        <ele>349.5390625</ele>
        <time>2012-04-14T14:44:43Z</time>
      </trkpt>
      <trkpt lat="47.19511" lon="3.78311">
        <ele>349.44140625</ele>
        <time>2012-04-14T14:44:49Z</time>
      </trkpt>
      <trkpt lat="47.19505" lon="3.78319">
        <ele>349.48828125</ele>
        <time>2012-04-14T14:44:55Z</time>
      </trkpt>
      <trkpt lat="47.19501" lon="3.78323">
        <ele>349.48828125</ele>
        <time>2012-04-14T14:44:59Z</time>
      </trkpt>
      <trkpt lat="47.19497" lon="3.78331">
        <ele>349.59765625</ele>
        <time>2012-04-14T14:45:04Z</time>
      </trkpt>
      <trkpt lat="47.19493" lon="3.78339">
        <ele>349.51953125</ele>
        <time>2012-04-14T14:45:09Z</time>
      </trkpt>
      <trkpt lat="47.19481" lon="3.78356">
        <ele>348.76953125</ele>
        <time>2012-04-14T14:45:24Z</time>
      </trkpt>
      <trkpt lat="47.19478" lon="3.78359">
        <ele>348.67578125</ele>
        <time>2012-04-14T14:45:27Z</time>
      </trkpt>
      <trkpt lat="47.19474" lon="3.78364">
        <ele>348.5703125</ele>
        <time>2012-04-14T14:45:31Z</time>
      </trkpt>
      <trkpt lat="47.19467" lon="3.78368">
        <ele>348.22265625</ele>
        <time>2012-04-14T14:45:36Z</time>
      </trkpt>
      <trkpt lat="47.19452" lon="3.78379">
        <ele>347.515625</ele>
        <time>2012-04-14T14:45:49Z</time>
      </trkpt>
      <trkpt lat="47.19449" lon="3.78381">
        <ele>347.3984375</ele>
        <time>2012-04-14T14:45:51Z</time>
      </trkpt>
      <trkpt lat="47.19444" lon="3.78386">
        <ele>347.15625</ele>
        <time>2012-04-14T14:45:56Z</time>
      </trkpt>
      <trkpt lat="47.1944" lon="3.78388">
        <ele>347.03125</ele>
        <time>2012-04-14T14:45:59Z</time>
      </trkpt>
      <trkpt lat="47.1943" lon="3.78396">
        <ele>346.55859375</ele>
        <time>2012-04-14T14:46:06Z</time>
      </trkpt>
      <trkpt lat="47.19426" lon="3.784">
        <ele>346.5546875</ele>
        <time>2012-04-14T14:46:09Z</time>
      </trkpt>
      <trkpt lat="47.19414" lon="3.78411">
        <ele>346.640625</ele>
        <time>2012-04-14T14:46:20Z</time>
      </trkpt>
      <trkpt lat="47.19413" lon="3.78413">
        <ele>346.6875</ele>
        <time>2012-04-14T14:46:21Z</time>
      </trkpt>
      <trkpt lat="47.19401" lon="3.78426">
        <ele>347.23828125</ele>
        <time>2012-04-14T14:46:35Z</time>
      </trkpt>
      <trkpt lat="47.194" lon="3.78427">
        <ele>347.2890625</ele>
        <time>2012-04-14T14:46:36Z</time>
      </trkpt>
      <trkpt lat="47.19381" lon="3.7845">
        <ele>348.265625</ele>
        <time>2012-04-14T14:46:53Z</time>
      </trkpt>
      <trkpt lat="47.19381" lon="3.78452">
        <ele>348.328125</ele>
        <time>2012-04-14T14:46:54Z</time>
      </trkpt>
      <trkpt lat="47.19379" lon="3.78454">
        <ele>348.4453125</ele>
        <time>2012-04-14T14:46:56Z</time>
      </trkpt>
      <trkpt lat="47.19368" lon="3.78469">
        <ele>348.98046875</ele>
        <time>2012-04-14T14:47:08Z</time>
      </trkpt>
      <trkpt lat="47.19365" lon="3.78473">
        <ele>348.984375</ele>
        <time>2012-04-14T14:47:11Z</time>
      </trkpt>
      <trkpt lat="47.19359" lon="3.78483">
        <ele>349.12109375</ele>
        <time>2012-04-14T14:47:17Z</time>
      </trkpt>
      <trkpt lat="47.19346" lon="3.78492">
        <ele>348.94921875</ele>
        <time>2012-04-14T14:47:28Z</time>
      </trkpt>
      <trkpt lat="47.19335" lon="3.785">
        <ele>348.76953125</ele>
        <time>2012-04-14T14:47:38Z</time>
      </trkpt>
      <trkpt lat="47.19331" lon="3.78502">
        <ele>348.68359375</ele>
        <time>2012-04-14T14:47:41Z</time>
      </trkpt>
      <trkpt lat="47.19328" lon="3.78507">
        <ele>348.71875</ele>
        <time>2012-04-14T14:47:46Z</time>
      </trkpt>
      <trkpt lat="47.19307" lon="3.78517">
        <ele>348.375</ele>
        <time>2012-04-14T14:47:53Z</time>
      </trkpt>
      <trkpt lat="47.19298" lon="3.78523">
        <ele>348.38671875</ele>
        <time>2012-04-14T14:47:57Z</time>
      </trkpt>
      <trkpt lat="47.1929" lon="3.78533">
        <ele>348.421875</ele>
        <time>2012-04-14T14:48:04Z</time>
      </trkpt>
      <trkpt lat="47.19283" lon="3.78543">
        <ele>348.5625</ele>
        <time>2012-04-14T14:48:11Z</time>
      </trkpt>
      <trkpt lat="47.19275" lon="3.78545">
        <ele>348.328125</ele>
        <time>2012-04-14T14:48:18Z</time>
      </trkpt>
      <trkpt lat="47.1927" lon="3.78542">
        <ele>348.0625</ele>
        <time>2012-04-14T14:48:24Z</time>
      </trkpt>
      <trkpt lat="47.19267" lon="3.78539">
        <ele>347.8359375</ele>
        <time>2012-04-14T14:48:28Z</time>
      </trkpt>
      <trkpt lat="47.19262" lon="3.78535">
        <ele>347.47265625</ele>
        <time>2012-04-14T14:48:32Z</time>
      </trkpt>
      <trkpt lat="47.19254" lon="3.78523">
        <ele>346.76171875</ele>
        <time>2012-04-14T14:48:42Z</time>
      </trkpt>
      <trkpt lat="47.19247" lon="3.78511">
        <ele>346.28125</ele>
        <time>2012-04-14T14:48:55Z</time>
      </trkpt>
      <trkpt lat="47.19249" lon="3.78511">
        <ele>346.33203125</ele>
        <time>2012-04-14T14:49:16Z</time>
      </trkpt>
      <trkpt lat="47.19248" lon="3.78498">
        <ele>346.1015625</ele>
        <time>2012-04-14T14:49:24Z</time>
      </trkpt>
      <trkpt lat="47.19248" lon="3.78495">
        <ele>346.0546875</ele>
        <time>2012-04-14T14:49:26Z</time>
      </trkpt>
      <trkpt lat="47.19243" lon="3.78474">
        <ele>345.83984375</ele>
        <time>2012-04-14T14:49:37Z</time>
      </trkpt>
      <trkpt lat="47.1924" lon="3.78463">
        <ele>345.82421875</ele>
        <time>2012-04-14T14:49:43Z</time>
      </trkpt>
      <trkpt lat="47.19238" lon="3.78455">
        <ele>345.58984375</ele>
        <time>2012-04-14T14:49:48Z</time>
      </trkpt>
      <trkpt lat="47.19229" lon="3.78443">
        <ele>345.6640625</ele>
        <time>2012-04-14T14:49:58Z</time>
      </trkpt>
      <trkpt lat="47.19219" lon="3.78438">
        <ele>346.2109375</ele>
        <time>2012-04-14T14:50:15Z</time>
      </trkpt>
      <trkpt lat="47.1921" lon="3.78432">
        <ele>346.80859375</ele>
        <time>2012-04-14T14:50:29Z</time>
      </trkpt>
      <trkpt lat="47.19197" lon="3.78433">
        <ele>347.4375</ele>
        <time>2012-04-14T14:50:42Z</time>
      </trkpt>
      <trkpt lat="47.19184" lon="3.78442">
        <ele>347.6875</ele>
        <time>2012-04-14T14:50:52Z</time>
      </trkpt>
      <trkpt lat="47.19174" lon="3.78448">
        <ele>347.57421875</ele>
        <time>2012-04-14T14:50:59Z</time>
      </trkpt>
      <trkpt lat="47.19147" lon="3.78464">
        <ele>346.81640625</ele>
        <time>2012-04-14T14:51:14Z</time>
      </trkpt>
      <trkpt lat="47.19145" lon="3.78466">
        <ele>346.59765625</ele>
        <time>2012-04-14T14:51:16Z</time>
      </trkpt>
      <trkpt lat="47.19124" lon="3.78483">
        <ele>343.91015625</ele>
        <time>2012-04-14T14:51:31Z</time>
      </trkpt>
      <trkpt lat="47.19109" lon="3.78501">
        <ele>342.4765625</ele>
        <time>2012-04-14T14:51:45Z</time>
      </trkpt>
      <trkpt lat="47.19103" lon="3.78505">
        <ele>342.13671875</ele>
        <time>2012-04-14T14:51:49Z</time>
      </trkpt>
      <trkpt lat="47.19084" lon="3.78521">
        <ele>340.84765625</ele>
        <time>2012-04-14T14:52:04Z</time>
      </trkpt>
      <trkpt lat="47.19065" lon="3.78536">
        <ele>339.8359375</ele>
        <time>2012-04-14T14:52:20Z</time>
      </trkpt>
      <trkpt lat="47.19042" lon="3.78538">
        <ele>339.67578125</ele>
        <time>2012-04-14T14:52:37Z</time>
      </trkpt>
      <trkpt lat="47.19024" lon="3.78544">
        <ele>339.859375</ele>
        <time>2012-04-14T14:52:51Z</time>
      </trkpt>
      <trkpt lat="47.19014" lon="3.78548">
        <ele>339.9296875</ele>
        <time>2012-04-14T14:52:59Z</time>
      </trkpt>
      <trkpt lat="47.19006" lon="3.78552">
        <ele>340.15234375</ele>
        <time>2012-04-14T14:53:05Z</time>
      </trkpt>
      <trkpt lat="47.18996" lon="3.7856">
        <ele>339.98828125</ele>
        <time>2012-04-14T14:53:14Z</time>
      </trkpt>
      <trkpt lat="47.18991" lon="3.78562">
        <ele>340.09765625</ele>
        <time>2012-04-14T14:53:18Z</time>
      </trkpt>
      <trkpt lat="47.18975" lon="3.78568">
        <ele>340.515625</ele>
        <time>2012-04-14T14:53:29Z</time>
      </trkpt>
      <trkpt lat="47.18963" lon="3.78577">
        <ele>340.51953125</ele>
        <time>2012-04-14T14:53:39Z</time>
      </trkpt>
      <trkpt lat="47.18959" lon="3.78581">
        <ele>340.56640625</ele>
        <time>2012-04-14T14:53:43Z</time>
      </trkpt>
      <trkpt lat="47.18939" lon="3.78589">
        <ele>340.3515625</ele>
        <time>2012-04-14T14:53:58Z</time>
      </trkpt>
      <trkpt lat="47.18922" lon="3.7859">
        <ele>340.50390625</ele>
        <time>2012-04-14T14:54:10Z</time>
      </trkpt>
      <trkpt lat="47.18909" lon="3.78593">
        <ele>340.58203125</ele>
        <time>2012-04-14T14:54:23Z</time>
      </trkpt>
      <trkpt lat="47.18904" lon="3.78592">
        <ele>340.73046875</ele>
        <time>2012-04-14T14:54:26Z</time>
      </trkpt>
      <trkpt lat="47.18882" lon="3.78591">
        <ele>341.14453125</ele>
        <time>2012-04-14T14:54:41Z</time>
      </trkpt>
      <trkpt lat="47.18876" lon="3.78591">
        <ele>341.21875</ele>
        <time>2012-04-14T14:54:49Z</time>
      </trkpt>
      <trkpt lat="47.18874" lon="3.78592">
        <ele>341.2421875</ele>
        <time>2012-04-14T14:54:56Z</time>
      </trkpt>
      <trkpt lat="47.18869" lon="3.78598">
        <ele>340.73828125</ele>
        <time>2012-04-14T14:55:02Z</time>
      </trkpt>
      <trkpt lat="47.1887" lon="3.786">
        <ele>340.484375</ele>
        <time>2012-04-14T14:55:11Z</time>
      </trkpt>
      <trkpt lat="47.18868" lon="3.786">
        <ele>340.57421875</ele>
        <time>2012-04-14T14:55:16Z</time>
      </trkpt>
      <trkpt lat="47.18859" lon="3.78604">
        <ele>340.51953125</ele>
        <time>2012-04-14T14:55:23Z</time>
      </trkpt>
      <trkpt lat="47.18856" lon="3.78604">
        <ele>340.59765625</ele>
        <time>2012-04-14T14:55:25Z</time>
      </trkpt>
      <trkpt lat="47.18844" lon="3.78612">
        <ele>340.9453125</ele>
        <time>2012-04-14T14:55:34Z</time>
      </trkpt>
      <trkpt lat="47.18836" lon="3.78617">
        <ele>341.51953125</ele>
        <time>2012-04-14T14:55:40Z</time>
      </trkpt>
      <trkpt lat="47.18823" lon="3.78624">
        <ele>342.1328125</ele>
        <time>2012-04-14T14:55:50Z</time>
      </trkpt>
      <trkpt lat="47.18819" lon="3.78627">
        <ele>342.25390625</ele>
        <time>2012-04-14T14:55:54Z</time>
      </trkpt>
      <trkpt lat="47.18808" lon="3.78639">
        <ele>342.4296875</ele>
        <time>2012-04-14T14:56:05Z</time>
      </trkpt>
      <trkpt lat="47.18801" lon="3.78649">
        <ele>342.1953125</ele>
        <time>2012-04-14T14:56:12Z</time>
      </trkpt>
      <trkpt lat="47.18793" lon="3.78657">
        <ele>341.98046875</ele>
        <time>2012-04-14T14:56:20Z</time>
      </trkpt>
      <trkpt lat="47.18791" lon="3.78659">
        <ele>342</ele>
        <time>2012-04-14T14:56:22Z</time>
      </trkpt>
      <trkpt lat="47.18788" lon="3.78662">
        <ele>342.06640625</ele>
        <time>2012-04-14T14:56:25Z</time>
      </trkpt>
      <trkpt lat="47.18776" lon="3.78674">
        <ele>342.5625</ele>
        <time>2012-04-14T14:56:38Z</time>
      </trkpt>
      <trkpt lat="47.18769" lon="3.78681">
        <ele>342.8359375</ele>
        <time>2012-04-14T14:56:45Z</time>
      </trkpt>
      <trkpt lat="47.18766" lon="3.78686">
        <ele>342.82421875</ele>
        <time>2012-04-14T14:56:49Z</time>
      </trkpt>
      <trkpt lat="47.18751" lon="3.78699">
        <ele>343.5</ele>
        <time>2012-04-14T14:57:03Z</time>
      </trkpt>
      <trkpt lat="47.18748" lon="3.78701">
        <ele>343.63671875</ele>
        <time>2012-04-14T14:57:06Z</time>
      </trkpt>
      <trkpt lat="47.18736" lon="3.78708">
        <ele>344.41015625</ele>
        <time>2012-04-14T14:57:20Z</time>
      </trkpt>
      <trkpt lat="47.18729" lon="3.78712">
        <ele>344.5859375</ele>
        <time>2012-04-14T14:57:27Z</time>
      </trkpt>
      <trkpt lat="47.18714" lon="3.7872">
        <ele>345.0859375</ele>
        <time>2012-04-14T14:57:41Z</time>
      </trkpt>
      <trkpt lat="47.18696" lon="3.78732">
        <ele>345.5625</ele>
        <time>2012-04-14T14:57:55Z</time>
      </trkpt>
      <trkpt lat="47.18692" lon="3.78737">
        <ele>345.52734375</ele>
        <time>2012-04-14T14:58:02Z</time>
      </trkpt>
      <trkpt lat="47.18669" lon="3.78744">
        <ele>346.26953125</ele>
        <time>2012-04-14T14:58:17Z</time>
      </trkpt>
      <trkpt lat="47.18651" lon="3.78747">
        <ele>346.85546875</ele>
        <time>2012-04-14T14:58:28Z</time>
      </trkpt>
      <trkpt lat="47.18632" lon="3.78749">
        <ele>347.29296875</ele>
        <time>2012-04-14T14:58:45Z</time>
      </trkpt>
      <trkpt lat="47.18627" lon="3.78749">
        <ele>347.43359375</ele>
        <time>2012-04-14T14:58:52Z</time>
      </trkpt>
      <trkpt lat="47.18621" lon="3.78747">
        <ele>347.4765625</ele>
        <time>2012-04-14T14:58:56Z</time>
      </trkpt>
      <trkpt lat="47.18603" lon="3.78746">
        <ele>347.02734375</ele>
        <time>2012-04-14T14:59:10Z</time>
      </trkpt>
      <trkpt lat="47.186" lon="3.78746">
        <ele>346.91015625</ele>
        <time>2012-04-14T14:59:12Z</time>
      </trkpt>
      <trkpt lat="47.1859" lon="3.7875">
        <ele>346.42578125</ele>
        <time>2012-04-14T14:59:25Z</time>
      </trkpt>
      <trkpt lat="47.18581" lon="3.7875">
        <ele>346.12890625</ele>
        <time>2012-04-14T14:59:37Z</time>
      </trkpt>
      <trkpt lat="47.18575" lon="3.78749">
        <ele>345.9375</ele>
        <time>2012-04-14T14:59:49Z</time>
      </trkpt>
      <trkpt lat="47.18571" lon="3.78751">
        <ele>345.70703125</ele>
        <time>2012-04-14T14:59:52Z</time>
      </trkpt>
      <trkpt lat="47.18558" lon="3.78753">
        <ele>344.48046875</ele>
        <time>2012-04-14T15:00:01Z</time>
      </trkpt>
      <trkpt lat="47.18546" lon="3.78754">
        <ele>343.3671875</ele>
        <time>2012-04-14T15:00:13Z</time>
      </trkpt>
      <trkpt lat="47.18533" lon="3.78749">
        <ele>342.04296875</ele>
        <time>2012-04-14T15:00:29Z</time>
      </trkpt>
      <trkpt lat="47.1853" lon="3.78749">
        <ele>341.71484375</ele>
        <time>2012-04-14T15:00:34Z</time>
      </trkpt>
      <trkpt lat="47.18524" lon="3.78752">
        <ele>341.11328125</ele>
        <time>2012-04-14T15:00:39Z</time>
      </trkpt>
      <trkpt lat="47.18512" lon="3.7875">
        <ele>339.87890625</ele>
        <time>2012-04-14T15:00:52Z</time>
      </trkpt>
      <trkpt lat="47.18507" lon="3.78748">
        <ele>339.51953125</ele>
        <time>2012-04-14T15:00:58Z</time>
      </trkpt>
      <trkpt lat="47.18498" lon="3.78748">
        <ele>338.8515625</ele>
        <time>2012-04-14T15:01:04Z</time>
      </trkpt>
      <trkpt lat="47.18476" lon="3.78745">
        <ele>336.984375</ele>
        <time>2012-04-14T15:01:16Z</time>
      </trkpt>
      <trkpt lat="47.18471" lon="3.78742">
        <ele>336.34375</ele>
        <time>2012-04-14T15:01:23Z</time>
      </trkpt>
      <trkpt lat="47.18455" lon="3.78738">
        <ele>334.6171875</ele>
        <time>2012-04-14T15:01:37Z</time>
      </trkpt>
      <trkpt lat="47.18443" lon="3.78733">
        <ele>333.12109375</ele>
        <time>2012-04-14T15:01:48Z</time>
      </trkpt>
      <trkpt lat="47.18429" lon="3.78733">
        <ele>331.5234375</ele>
        <time>2012-04-14T15:02:03Z</time>
      </trkpt>
      <trkpt lat="47.18416" lon="3.78732">
        <ele>330.43359375</ele>
        <time>2012-04-14T15:02:14Z</time>
      </trkpt>
      <trkpt lat="47.18398" lon="3.78735">
        <ele>329.0546875</ele>
        <time>2012-04-14T15:02:26Z</time>
      </trkpt>
      <trkpt lat="47.18393" lon="3.78736">
        <ele>328.64453125</ele>
        <time>2012-04-14T15:02:29Z</time>
      </trkpt>
      <trkpt lat="47.18382" lon="3.78734">
        <ele>327.4140625</ele>
        <time>2012-04-14T15:02:41Z</time>
      </trkpt>
      <trkpt lat="47.18364" lon="3.78726">
        <ele>325.80859375</ele>
        <time>2012-04-14T15:02:53Z</time>
      </trkpt>
      <trkpt lat="47.18351" lon="3.78724">
        <ele>324.984375</ele>
        <time>2012-04-14T15:03:06Z</time>
      </trkpt>
      <trkpt lat="47.18341" lon="3.78722">
        <ele>324.22265625</ele>
        <time>2012-04-14T15:03:17Z</time>
      </trkpt>
      <trkpt lat="47.18339" lon="3.78721">
        <ele>324.08984375</ele>
        <time>2012-04-14T15:03:18Z</time>
      </trkpt>
      <trkpt lat="47.18324" lon="3.78721">
        <ele>323.25390625</ele>
        <time>2012-04-14T15:03:29Z</time>
      </trkpt>
      <trkpt lat="47.18313" lon="3.7872">
        <ele>322.5078125</ele>
        <time>2012-04-14T15:03:40Z</time>
      </trkpt>
      <trkpt lat="47.18299" lon="3.78717">
        <ele>321.48828125</ele>
        <time>2012-04-14T15:03:53Z</time>
      </trkpt>
      <trkpt lat="47.18287" lon="3.78717">
        <ele>320.6796875</ele>
        <time>2012-04-14T15:04:06Z</time>
      </trkpt>
      <trkpt lat="47.18274" lon="3.78718">
        <ele>319.6875</ele>
        <time>2012-04-14T15:04:18Z</time>
      </trkpt>
      <trkpt lat="47.18263" lon="3.78716">
        <ele>318.9375</ele>
        <time>2012-04-14T15:04:27Z</time>
      </trkpt>
      <trkpt lat="47.18257" lon="3.78714">
        <ele>318.48046875</ele>
        <time>2012-04-14T15:04:32Z</time>
      </trkpt>
      <trkpt lat="47.18241" lon="3.7871">
        <ele>317.4765625</ele>
        <time>2012-04-14T15:04:45Z</time>
      </trkpt>
      <trkpt lat="47.18233" lon="3.78708">
        <ele>316.99609375</ele>
        <time>2012-04-14T15:04:57Z</time>
      </trkpt>
      <trkpt lat="47.18226" lon="3.78706">
        <ele>316.61328125</ele>
        <time>2012-04-14T15:05:03Z</time>
      </trkpt>
      <trkpt lat="47.18212" lon="3.78706">
        <ele>315.7578125</ele>
        <time>2012-04-14T15:05:17Z</time>
      </trkpt>
      <trkpt lat="47.18202" lon="3.78711">
        <ele>315.1640625</ele>
        <time>2012-04-14T15:05:27Z</time>
      </trkpt>
      <trkpt lat="47.18197" lon="3.78712">
        <ele>315.0859375</ele>
        <time>2012-04-14T15:05:30Z</time>
      </trkpt>
      <trkpt lat="47.18183" lon="3.78716">
        <ele>314.80859375</ele>
        <time>2012-04-14T15:05:44Z</time>
      </trkpt>
      <trkpt lat="47.18176" lon="3.7872">
        <ele>314.23046875</ele>
        <time>2012-04-14T15:05:56Z</time>
      </trkpt>
      <trkpt lat="47.18165" lon="3.78725">
        <ele>313.28125</ele>
        <time>2012-04-14T15:06:06Z</time>
      </trkpt>
      <trkpt lat="47.18156" lon="3.78735">
        <ele>312.37890625</ele>
        <time>2012-04-14T15:06:19Z</time>
      </trkpt>
      <trkpt lat="47.18156" lon="3.78735">
        <ele>312.36328125</ele>
        <time>2012-04-14T15:06:23Z</time>
      </trkpt>
      <trkpt lat="47.18148" lon="3.78743">
        <ele>311.69140625</ele>
        <time>2012-04-14T15:06:34Z</time>
      </trkpt>
      <trkpt lat="47.1813" lon="3.7875">
        <ele>310.59375</ele>
        <time>2012-04-14T15:06:47Z</time>
      </trkpt>
      <trkpt lat="47.18106" lon="3.78755">
        <ele>308.296875</ele>
        <time>2012-04-14T15:07:00Z</time>
      </trkpt>
      <trkpt lat="47.18091" lon="3.78768">
        <ele>306.51171875</ele>
        <time>2012-04-14T15:07:12Z</time>
      </trkpt>
      <trkpt lat="47.18086" lon="3.78773">
        <ele>306.07421875</ele>
        <time>2012-04-14T15:07:16Z</time>
      </trkpt>
      <trkpt lat="47.18079" lon="3.78774">
        <ele>305.62109375</ele>
        <time>2012-04-14T15:07:20Z</time>
      </trkpt>
      <trkpt lat="47.18075" lon="3.78774">
        <ele>305.33203125</ele>
        <time>2012-04-14T15:07:24Z</time>
      </trkpt>
      <trkpt lat="47.18064" lon="3.78775">
        <ele>304.2578125</ele>
        <time>2012-04-14T15:07:34Z</time>
      </trkpt>
      <trkpt lat="47.18055" lon="3.78778">
        <ele>303.08203125</ele>
        <time>2012-04-14T15:07:41Z</time>
      </trkpt>
      <trkpt lat="47.18033" lon="3.78778">
        <ele>300.66015625</ele>
        <time>2012-04-14T15:07:57Z</time>
      </trkpt>
      <trkpt lat="47.18026" lon="3.78776">
        <ele>300.0703125</ele>
        <time>2012-04-14T15:08:06Z</time>
      </trkpt>
      <trkpt lat="47.18021" lon="3.78773">
        <ele>299.61328125</ele>
        <time>2012-04-14T15:08:12Z</time>
      </trkpt>
      <trkpt lat="47.18014" lon="3.7877">
        <ele>298.98046875</ele>
        <time>2012-04-14T15:08:25Z</time>
      </trkpt>
      <trkpt lat="47.18011" lon="3.78766">
        <ele>298.33203125</ele>
        <time>2012-04-14T15:08:28Z</time>
      </trkpt>
      <trkpt lat="47.18002" lon="3.78756">
        <ele>296.23046875</ele>
        <time>2012-04-14T15:08:39Z</time>
      </trkpt>
      <trkpt lat="47.17988" lon="3.78739">
        <ele>292.8828125</ele>
        <time>2012-04-14T15:08:54Z</time>
      </trkpt>
      <trkpt lat="47.17983" lon="3.78731">
        <ele>291.5546875</ele>
        <time>2012-04-14T15:08:59Z</time>
      </trkpt>
      <trkpt lat="47.17979" lon="3.78722">
        <ele>290.30078125</ele>
        <time>2012-04-14T15:09:06Z</time>
      </trkpt>
      <trkpt lat="47.17968" lon="3.78705">
        <ele>287.64453125</ele>
        <time>2012-04-14T15:09:18Z</time>
      </trkpt>
      <trkpt lat="47.17955" lon="3.78689">
        <ele>285.16015625</ele>
        <time>2012-04-14T15:09:31Z</time>
      </trkpt>
      <trkpt lat="47.17952" lon="3.78682">
        <ele>284.1640625</ele>
        <time>2012-04-14T15:09:37Z</time>
      </trkpt>
      <trkpt lat="47.17949" lon="3.78678">
        <ele>283.51953125</ele>
        <time>2012-04-14T15:09:40Z</time>
      </trkpt>
      <trkpt lat="47.17937" lon="3.78666">
        <ele>281.3515625</ele>
        <time>2012-04-14T15:09:53Z</time>
      </trkpt>
      <trkpt lat="47.17933" lon="3.78663">
        <ele>280.73828125</ele>
        <time>2012-04-14T15:09:57Z</time>
      </trkpt>
      <trkpt lat="47.17932" lon="3.7866">
        <ele>280.3203125</ele>
        <time>2012-04-14T15:09:59Z</time>
      </trkpt>
      <trkpt lat="47.17927" lon="3.78642">
        <ele>276.62890625</ele>
        <time>2012-04-14T15:10:08Z</time>
      </trkpt>
      <trkpt lat="47.17926" lon="3.78638">
        <ele>275.8046875</ele>
        <time>2012-04-14T15:10:10Z</time>
      </trkpt>
      <trkpt lat="47.17925" lon="3.78633">
        <ele>274.64453125</ele>
        <time>2012-04-14T15:10:14Z</time>
      </trkpt>
      <trkpt lat="47.17923" lon="3.78627">
        <ele>273.29296875</ele>
        <time>2012-04-14T15:10:19Z</time>
      </trkpt>
      <trkpt lat="47.17923" lon="3.78617">
        <ele>271.47265625</ele>
        <time>2012-04-14T15:10:25Z</time>
      </trkpt>
      <trkpt lat="47.17927" lon="3.78606">
        <ele>270.109375</ele>
        <time>2012-04-14T15:10:33Z</time>
      </trkpt>
      <trkpt lat="47.17938" lon="3.78596">
        <ele>269.74609375</ele>
        <time>2012-04-14T15:10:48Z</time>
      </trkpt>
      <trkpt lat="47.1794" lon="3.78594">
        <ele>269.71484375</ele>
        <time>2012-04-14T15:10:51Z</time>
      </trkpt>
      <trkpt lat="47.17952" lon="3.78586">
        <ele>269.87890625</ele>
        <time>2012-04-14T15:11:03Z</time>
      </trkpt>
      <trkpt lat="47.1797" lon="3.78585">
        <ele>272.00390625</ele>
        <time>2012-04-14T15:11:20Z</time>
      </trkpt>
      <trkpt lat="47.17972" lon="3.78584">
        <ele>272.18359375</ele>
        <time>2012-04-14T15:11:22Z</time>
      </trkpt>
      <trkpt lat="47.17986" lon="3.78586">
        <ele>274.171875</ele>
        <time>2012-04-14T15:11:32Z</time>
      </trkpt>
      <trkpt lat="47.17995" lon="3.78587">
        <ele>276.25390625</ele>
        <time>2012-04-14T15:11:38Z</time>
      </trkpt>
      <trkpt lat="47.18003" lon="3.78585">
        <ele>277.98828125</ele>
        <time>2012-04-14T15:11:52Z</time>
      </trkpt>
      <trkpt lat="47.18006" lon="3.78582">
        <ele>278.59765625</ele>
        <time>2012-04-14T15:12:03Z</time>
      </trkpt>
      <trkpt lat="47.18011" lon="3.78578">
        <ele>279.33203125</ele>
        <time>2012-04-14T15:12:09Z</time>
      </trkpt>
      <trkpt lat="47.18013" lon="3.78574">
        <ele>279.64453125</ele>
        <time>2012-04-14T15:12:12Z</time>
      </trkpt>
      <trkpt lat="47.18021" lon="3.78554">
        <ele>279.9609375</ele>
        <time>2012-04-14T15:12:24Z</time>
      </trkpt>
      <trkpt lat="47.18027" lon="3.78537">
        <ele>280.40234375</ele>
        <time>2012-04-14T15:12:31Z</time>
      </trkpt>
      <trkpt lat="47.1803" lon="3.78505">
        <ele>279.51171875</ele>
        <time>2012-04-14T15:12:46Z</time>
      </trkpt>
      <trkpt lat="47.18027" lon="3.78476">
        <ele>276.4140625</ele>
        <time>2012-04-14T15:13:00Z</time>
      </trkpt>
      <trkpt lat="47.18024" lon="3.78473">
        <ele>275.48046875</ele>
        <time>2012-04-14T15:13:02Z</time>
      </trkpt>
      <trkpt lat="47.18018" lon="3.7847">
        <ele>274.21484375</ele>
        <time>2012-04-14T15:13:07Z</time>
      </trkpt>
      <trkpt lat="47.18016" lon="3.7847">
        <ele>273.96875</ele>
        <time>2012-04-14T15:13:09Z</time>
      </trkpt>
      <trkpt lat="47.17993" lon="3.78472">
        <ele>269.9140625</ele>
        <time>2012-04-14T15:13:23Z</time>
      </trkpt>
      <trkpt lat="47.17972" lon="3.78489">
        <ele>267.72265625</ele>
        <time>2012-04-14T15:13:38Z</time>
      </trkpt>
      <trkpt lat="47.1797" lon="3.7849">
        <ele>267.61328125</ele>
        <time>2012-04-14T15:13:39Z</time>
      </trkpt>
      <trkpt lat="47.17953" lon="3.78504">
        <ele>265.22265625</ele>
        <time>2012-04-14T15:13:53Z</time>
      </trkpt>
      <trkpt lat="47.17936" lon="3.78518">
        <ele>262.73046875</ele>
        <time>2012-04-14T15:14:09Z</time>
      </trkpt>
      <trkpt lat="47.17928" lon="3.7852">
        <ele>261.640625</ele>
        <time>2012-04-14T15:14:15Z</time>
      </trkpt>
      <trkpt lat="47.17906" lon="3.78534">
        <ele>258.375</ele>
        <time>2012-04-14T15:14:32Z</time>
      </trkpt>
      <trkpt lat="47.17884" lon="3.78548">
        <ele>255.2265625</ele>
        <time>2012-04-14T15:14:49Z</time>
      </trkpt>
      <trkpt lat="47.17864" lon="3.78564">
        <ele>254.140625</ele>
        <time>2012-04-14T15:15:05Z</time>
      </trkpt>
      <trkpt lat="47.17863" lon="3.78565">
        <ele>254.0703125</ele>
        <time>2012-04-14T15:15:06Z</time>
      </trkpt>
      <trkpt lat="47.17857" lon="3.78567">
        <ele>253.5</ele>
        <time>2012-04-14T15:15:10Z</time>
      </trkpt>
      <trkpt lat="47.17836" lon="3.78577">
        <ele>251.58984375</ele>
        <time>2012-04-14T15:15:27Z</time>
      </trkpt>
      <trkpt lat="47.17822" lon="3.78588">
        <ele>250.7265625</ele>
        <time>2012-04-14T15:15:37Z</time>
      </trkpt>
      <trkpt lat="47.17803" lon="3.78612">
        <ele>250.34765625</ele>
        <time>2012-04-14T15:15:55Z</time>
      </trkpt>
      <trkpt lat="47.1779" lon="3.7864">
        <ele>250.6796875</ele>
        <time>2012-04-14T15:16:11Z</time>
      </trkpt>
      <trkpt lat="47.17782" lon="3.78672">
        <ele>251.88671875</ele>
        <time>2012-04-14T15:16:29Z</time>
      </trkpt>
      <trkpt lat="47.17781" lon="3.78676">
        <ele>251.95703125</ele>
        <time>2012-04-14T15:16:31Z</time>
      </trkpt>
      <trkpt lat="47.17778" lon="3.78689">
        <ele>252.25</ele>
        <time>2012-04-14T15:16:38Z</time>
      </trkpt>
      <trkpt lat="47.17778" lon="3.78695">
        <ele>252.6640625</ele>
        <time>2012-04-14T15:16:41Z</time>
      </trkpt>
      <trkpt lat="47.17764" lon="3.78726">
        <ele>250.8984375</ele>
        <time>2012-04-14T15:17:00Z</time>
      </trkpt>
      <trkpt lat="47.17763" lon="3.78736">
        <ele>251.25390625</ele>
        <time>2012-04-14T15:17:06Z</time>
      </trkpt>
      <trkpt lat="47.17763" lon="3.78767">
        <ele>252.6484375</ele>
        <time>2012-04-14T15:17:22Z</time>
      </trkpt>
      <trkpt lat="47.17763" lon="3.78771">
        <ele>252.8515625</ele>
        <time>2012-04-14T15:17:38Z</time>
      </trkpt>
    </trkseg>
  </trk>
</gpx>